M I D A S
Marine Information and Data Acquisition System
Tripno 999 of the Zeeleeuw from 2005-07-19 09:09:39 to 2005-07-19 12:50:50
Back to CruiseResearch ActivitiesStationsMapUnderway DataData graphs

EquipmentUnitsComment
TimeDGPSUTC
LatitudeDGPSDM.mWGS84
LongitudeDGPSDM.mWGS84
TemperatureSBE03/SBE38deg celciusITS90
ConductivitySBE21S/mITS90
SalinitySBE21 Practical Salinity Units
ChlorophylAChelsea fluorimeterg/lCalibrated in Aceton
Missing or incorrect values are displayed as -999
Sea surface data collected by the RV Zeeleeuw from 2005-07-19 09:11:16 to 2005-07-19 12:57:17
                                                                                    Next 1000 lines
Time Latitude Longitude Temperature Conductivity Salinity ChlorophylA
2005-07-19 09:11:27 51°13.622 2°56.052 20.8061 3.327032 22.793802 7.71352
2005-07-19 09:11:32 51°13.622 2°56.052 20.8064 2.245229 14.799466 7.477554
2005-07-19 09:11:36 51°13.622 2°56.052 20.8044 2.954318 19.994457 7.275298
2005-07-19 09:11:42 51°13.621 2°56.052 20.8042 3.350308 22.967787 7.71352
2005-07-19 09:11:47 51°13.621 2°56.052 20.8016 3.350308 22.967787 7.71352
2005-07-19 09:11:52 51°13.621 2°56.052 20.802 3.07495 20.893567 7.71352
2005-07-19 09:11:57 51°13.621 2°56.051 20.8075 3.828746 26.62408 8.118033
2005-07-19 09:12:02 51°13.621 2°56.049 20.8209 3.859732 26.862557 7.848358
2005-07-19 09:12:07 51°13.622 2°56.046 20.8406 3.703021 25.655495 7.848358
2005-07-19 09:12:12 51°13.623 2°56.042 20.854 3.092636 21.024661 7.679811
2005-07-19 09:12:17 51°13.623 2°56.037 20.8677 3.092636 21.024661 7.679811
2005-07-19 09:12:23 51°13.625 2°56.031 20.8762 3.242572 22.151842 7.511264
2005-07-19 09:12:27 51°13.626 2°56.025 20.8828 2.703248 18.132909 7.882067
2005-07-19 09:12:33 51°13.628 2°56.017 20.8857 3.777105 26.227956 8.016905
2005-07-19 09:12:37 51°13.63 2°56.011 20.8846 3.097163 21.059942 7.780939
2005-07-19 09:12:43 51°13.632 2°56.002 20.8846 2.527491 16.842389 7.780939
2005-07-19 09:12:48 51°13.634 2°55.994 20.8801 2.527491 16.842389 7.780939
2005-07-19 09:12:52 51°13.635 2°55.987 20.8775 3.004841 20.363903 7.949486
2005-07-19 09:12:58 51°13.638 2°55.976 20.8751 2.752273 18.482353 8.219161
2005-07-19 09:13:02 51°13.639 2°55.969 20.8713 3.644223 25.183929 7.915777
2005-07-19 09:13:08 51°13.641 2°55.958 20.8657 3.262579 22.276043 8.151742
2005-07-19 09:13:12 51°13.643 2°55.95 20.8622 2.36158 15.614024 7.949486
2005-07-19 09:13:17 51°13.645 2°55.94 20.8578 2.36158 15.614024 7.949486
2005-07-19 09:13:23 51°13.648 2°55.93 20.8546 3.07895 20.889692 8.151742
2005-07-19 09:13:28 51°13.65 2°55.92 20.8547 2.409727 15.961161 8.050614
2005-07-19 09:13:32 51°13.652 2°55.912 20.8584 3.100321 21.048842 7.74723
2005-07-19 09:13:37 51°13.655 2°55.902 20.8626 3.136328 21.320173 7.780939
2005-07-19 09:13:42 51°13.658 2°55.894 20.8675 2.976421 20.125273 7.74723
2005-07-19 09:13:48 51°13.661 2°55.883 20.8719 2.976421 20.125273 7.74723
2005-07-19 09:13:53 51°13.664 2°55.874 20.8746 2.789309 18.740881 7.780939
2005-07-19 09:13:58 51°13.668 2°55.865 20.8746 2.913271 19.659434 8.219161
2005-07-19 09:14:03 51°13.671 2°55.856 20.875 3.242676 22.124675 7.612392
2005-07-19 09:14:08 51°13.675 2°55.847 20.875 3.041578 20.618216 8.050614
2005-07-19 09:14:12 51°13.678 2°55.839 20.8746 2.657488 17.775045 8.219161
2005-07-19 09:14:17 51°13.682 2°55.829 20.8719 2.657488 17.775045 8.219161
2005-07-19 09:14:21 51°13.686 2°55.822 20.8705 2.914113 19.66918 8.522546
2005-07-19 09:14:28 51°13.691 2°55.809 20.8691 3.103164 21.077948 8.050614
2005-07-19 09:14:32 51°13.695 2°55.802 20.868 3.020209 20.457092 8.387708
2005-07-19 09:14:37 51°13.7 2°55.792 20.8642 3.027894 20.513753 8.320289
2005-07-19 09:14:42 51°13.704 2°55.783 20.8599 2.907588 19.616936 8.556255
2005-07-19 09:14:48 51°13.71 2°55.773 20.8534 2.907588 19.616936 8.556255
2005-07-19 09:14:53 51°13.715 2°55.765 20.8475 2.580179 17.20037 8.455127
2005-07-19 09:14:57 51°13.72 2°55.757 20.8412 2.916639 19.682845 7.983195
2005-07-19 09:15:02 51°13.725 2°55.749 20.8321 2.626983 17.547367 8.252871
2005-07-19 09:15:08 51°13.731 2°55.74 20.8203 2.278228 15.013589 8.353999
2005-07-19 09:15:12 51°13.736 2°55.733 20.8123 3.410239 23.386235 8.28658
2005-07-19 09:15:18 51°13.743 2°55.725 20.8025 3.410239 23.386235 8.28658
2005-07-19 09:15:23 51°13.748 2°55.717 20.7957 2.749012 18.444885 8.589965
2005-07-19 09:15:28 51°13.754 2°55.711 20.7882 2.709559 18.155903 8.589965
2005-07-19 09:15:32 51°13.759 2°55.706 20.7801 3.212981 21.902634 9.39899
2005-07-19 09:15:38 51°13.767 2°55.698 20.7744 3.114113 21.163694 8.185452
2005-07-19 09:15:41 51°13.771 2°55.694 20.768 3.133907 21.314433 8.691093
2005-07-19 09:15:48 51°13.779 2°55.686 20.7594 3.133907 21.314433 8.691093
2005-07-19 09:15:53 51°13.786 2°55.681 20.755 3.059685 20.764199 8.320289
2005-07-19 09:15:57 51°13.792 2°55.676 20.753 2.776683 18.667004 8.556255
2005-07-19 09:16:03 51°13.8 2°55.671 20.7514 3.052211 20.716712 8.252871
2005-07-19 09:16:08 51°13.807 2°55.667 20.7521 3.053474 20.731862 8.387708
2005-07-19 09:16:12 51°13.813 2°55.663 20.7506 3.063581 20.809821 8.185452
2005-07-19 09:16:18 51°13.822 2°55.658 20.7491 3.063581 20.809821 8.185452
2005-07-19 09:16:21 51°13.827 2°55.655 20.7442 2.064203 13.503675 8.219161
2005-07-19 09:16:28 51°13.836 2°55.65 20.7425 2.936742 19.870356 8.320289
2005-07-19 09:16:33 51°13.843 2°55.647 20.7424 3.166126 21.590755 8.657383
2005-07-19 09:16:37 51°13.849 2°55.645 20.7368 2.847709 19.216629 8.623674
2005-07-19 09:16:42 51°13.855 2°55.643 20.7301 3.006105 20.398095 8.151742
2005-07-19 09:16:48 51°13.863 2°55.641 20.7248 3.217089 21.984044 8.691093
2005-07-19 09:16:52 51°13.869 2°55.64 20.7178 3.217089 21.984044 8.691093
2005-07-19 09:16:57 51°13.876 2°55.639 20.7061 3.149385 21.473957 8.589965
2005-07-19 09:17:03 51°13.884 2°55.639 20.6933 3.108429 21.16735 8.455127
2005-07-19 09:17:08 51°13.89 2°55.64 20.6802 3.067371 20.862177 8.320289
2005-07-19 09:17:13 51°13.898 2°55.641 20.669 2.917798 19.744733 8.28658
2005-07-19 09:17:17 51°13.903 2°55.643 20.6617 2.917798 19.744733 8.28658
2005-07-19 09:17:22 51°13.91 2°55.644 20.6576 2.898117 19.601469 8.522546
2005-07-19 09:17:28 51°13.916 2°55.647 20.6585 3.071161 20.896339 8.623674
2005-07-19 09:17:32 51°13.92 2°55.648 20.6614 2.755957 18.552111 8.016905
2005-07-19 09:17:37 51°13.926 2°55.65 20.6604 3.014105 20.47414 7.915777
2005-07-19 09:17:42 51°13.93 2°55.652 20.66 2.274551 15.039746 8.623674
2005-07-19 09:17:47 51°13.935 2°55.655 20.6621 2.274551 15.039746 8.623674
2005-07-19 09:17:52 51°13.939 2°55.657 20.662 3.387173 23.299729 8.387708
2005-07-19 09:17:57 51°13.943 2°55.659 20.665 2.86602 19.38487 8.488836
2005-07-19 09:18:01 51°13.945 2°55.661 20.6676 3.140962 21.448225 9.331571
2005-07-19 09:18:07 51°13.948 2°55.662 20.6674 2.266144 14.992591 8.488836
2005-07-19 09:18:12 51°13.949 2°55.663 20.6682 3.086216 21.042354 9.028187
2005-07-19 09:18:17 51°13.95 2°55.664 20.6691 3.086216 21.042354 9.028187
2005-07-19 09:18:21 51°13.95 2°55.664 20.6682 2.364104 15.70425 8.623674
2005-07-19 09:18:27 51°13.95 2°55.663 20.6681 2.332044 15.472434 8.421418
2005-07-19 09:18:32 51°13.95 2°55.662 20.6667 2.962424 20.116736 8.387708
2005-07-19 09:18:37 51°13.95 2°55.659 20.6675 3.184132 21.780964 8.960768
2005-07-19 09:18:41 51°13.949 2°55.658 20.6676 3.142752 21.46903 8.960768
2005-07-19 09:18:48 51°13.949 2°55.654 20.6654 3.142752 21.46903 8.960768
2005-07-19 09:18:52 51°13.948 2°55.652 20.6667 3.211193 21.984544 8.85964
2005-07-19 09:18:57 51°13.948 2°55.648 20.6671 2.814563 19.013436 8.589965
2005-07-19 09:19:01 51°13.947 2°55.645 20.6672 2.983475 20.272489 8.589965
2005-07-19 09:19:08 51°13.947 2°55.64 20.6656 2.122715 13.960865 8.792221
2005-07-19 09:19:12 51°13.947 2°55.636 20.664 3.336828 22.936014 8.488836
2005-07-19 09:19:17 51°13.948 2°55.631 20.6598 3.336828 22.936014 8.488836
2005-07-19 09:19:21 51°13.949 2°55.628 20.6566 3.040738 20.701681 8.758512
2005-07-19 09:19:27 51°13.95 2°55.622 20.6555 2.938532 19.937298 8.556255
2005-07-19 09:19:32 51°13.952 2°55.616 20.6572 2.859601 19.349076 8.623674
2005-07-19 09:19:37 51°13.954 2°55.608 20.6559 2.719766 18.311468 8.589965
2005-07-19 09:19:42 51°13.957 2°55.602 20.6554 2.892119 19.590527 9.028187
2005-07-19 09:19:48 51°13.963 2°55.593 20.6568 2.892119 19.590527 9.028187
2005-07-19 09:19:52 51°13.968 2°55.586 20.6612 2.621726 17.589237 9.129315
2005-07-19 09:19:57 51°13.974 2°55.577 20.67 3.589646 24.866466 8.927059
2005-07-19 09:20:03 51°13.982 2°55.567 20.6755 3.177604 21.733836 8.893349
2005-07-19 09:20:07 51°13.989 2°55.558 20.6819 2.973897 20.204143 8.556255
2005-07-19 09:20:12 51°13.996 2°55.55 20.6881 3.555194 24.605542 8.994477
2005-07-19 09:20:17 51°14.006 2°55.539 20.6924 3.58775 24.855156 8.82593
2005-07-19 09:20:22 51°14.014 2°55.53 20.6969 3.58775 24.855156 8.82593
2005-07-19 09:20:27 51°14.025 2°55.52 20.6994 2.883595 19.531476 8.252871
2005-07-19 09:20:32 51°14.034 2°55.51 20.7025 2.799938 18.909497 8.994477
2005-07-19 09:20:37 51°14.046 2°55.499 20.703 3.621677 25.115221 8.691093
2005-07-19 09:20:42 51°14.055 2°55.49 20.7064 3.462172 23.891 8.522546
2005-07-19 09:20:48 51°14.069 2°55.478 20.7171 3.462172 23.891 8.522546
2005-07-19 09:20:52 51°14.078 2°55.469 20.7347 3.262265 22.369272 8.927059
2005-07-19 09:20:57 51°14.09 2°55.458 20.7542 3.042949 20.713208 8.758512
2005-07-19 09:21:01 51°14.1 2°55.45 20.7747 2.072502 13.596068 9.061896
2005-07-19 09:21:08 51°14.115 2°55.437 20.7895 2.848341 19.255947 8.792221
2005-07-19 09:21:12 51°14.124 2°55.429 20.7947 2.979686 20.233297 8.623674
2005-07-19 09:21:17 51°14.137 2°55.417 20.7962 2.979686 20.233297 8.623674
2005-07-19 09:21:22 51°14.148 2°55.407 20.793 2.749539 18.520281 8.623674
2005-07-19 09:21:27 51°14.161 2°55.394 20.79 2.468291 16.451659 9.095606
2005-07-19 09:21:32 51°14.172 2°55.383 20.7878 2.802778 18.909998 8.994477
2005-07-19 09:21:37 51°14.184 2°55.368 20.782 3.357787 23.069701 9.129315
2005-07-19 09:21:42 51°14.194 2°55.356 20.7766 2.465031 16.416158 8.691093
2005-07-19 09:21:47 51°14.207 2°55.342 20.7784 2.465031 16.416158 8.691093
2005-07-19 09:21:52 51°14.217 2°55.329 20.7877 2.8274 19.07191 8.893349
2005-07-19 09:21:57 51°14.229 2°55.313 20.7951 2.799411 18.859948 8.893349
2005-07-19 09:22:01 51°14.237 2°55.301 20.8058 2.630771 17.612654 8.623674
2005-07-19 09:22:07 51°14.249 2°55.285 20.8147 2.484063 16.537617 8.724802
2005-07-19 09:22:12 51°14.259 2°55.269 20.822 2.721027 18.275112 8.589965
2005-07-19 09:22:17 51°14.27 2°55.251 20.825 2.721027 18.275112 8.589965
2005-07-19 09:22:22 51°14.279 2°55.236 20.8229 2.936847 19.874358 8.353999
2005-07-19 09:22:27 51°14.29 2°55.217 20.8157 2.843816 19.184019 8.724802
2005-07-19 09:22:32 51°14.299 2°55.201 20.8088 2.762269 18.580118 9.331571
2005-07-19 09:22:37 51°14.309 2°55.182 20.797 2.654543 17.784455 8.85964
2005-07-19 09:22:41 51°14.318 2°55.164 20.7811 2.643919 17.704086 8.387708
2005-07-19 09:22:47 51°14.33 2°55.14 20.7635 2.643919 17.704086 8.387708
2005-07-19 09:22:52 51°14.339 2°55.122 20.7406 2.621515 17.535894 8.623674
2005-07-19 09:22:57 51°14.35 2°55.103 20.7141 2.735545 18.372689 8.691093
2005-07-19 09:23:01 51°14.36 2°55.085 20.69 2.751958 18.491385 8.994477
2005-07-19 09:23:08 51°14.376 2°55.062 20.6656 2.786258 18.743489 9.163024
2005-07-19 09:23:12 51°14.389 2°55.049 20.6349 2.791203 18.78065 9.39899
2005-07-19 09:23:17 51°14.404 2°55.037 20.6044 2.791203 18.78065 9.39899
2005-07-19 09:23:21 51°14.417 2°55.029 20.5699 2.882962 19.462274 8.893349
2005-07-19 09:23:28 51°14.438 2°55.018 20.5385 3.202241 21.854763 8.691093
2005-07-19 09:23:32 51°14.452 2°55.012 20.5088 1.771373 11.434249 9.061896
2005-07-19 09:23:37 51°14.47 2°55.003 20.4718 2.848446 19.223962 9.634956
2005-07-19 09:23:41 51°14.484 2°54.997 20.4306 2.513821 16.766177 8.792221
2005-07-19 09:23:47 51°14.504 2°54.987 20.3944 3.030421 20.598896 9.264153
2005-07-19 09:23:52 51°14.521 2°54.979 20.3629 3.030421 20.598896 9.264153
2005-07-19 09:23:57 51°14.541 2°54.969 20.3375 1.90941 12.433384 9.129315
2005-07-19 09:24:01 51°14.555 2°54.961 20.3202 3.025053 20.592476 8.657383
2005-07-19 09:24:07 51°14.576 2°54.949 20.3119 1.501044 9.589949 8.556255
2005-07-19 09:24:12 51°14.593 2°54.939 20.3122 3.607032 25.038645 8.320289
2005-07-19 09:24:17 51°14.61 2°54.929 20.3143 3.607032 25.038645 8.320289
2005-07-19 09:24:21 51°14.624 2°54.921 20.3112 2.337405 15.534527 8.421418
2005-07-19 09:24:27 51°14.644 2°54.909 20.2943 3.641276 25.311641 8.387708
2005-07-19 09:24:32 51°14.663 2°54.9 20.2256 3.642961 25.320905 7.848358
2005-07-19 09:24:37 51°14.679 2°54.892 20.2342 3.4568 23.89319 7.780939
2005-07-19 09:24:41 51°14.693 2°54.886 20.2314 2.802043 18.973219 7.983195
2005-07-19 09:24:47 51°14.713 2°54.876 20.3242 2.802043 18.973219 7.983195
2005-07-19 09:24:52 51°14.727 2°54.869 20.3125 2.477546 16.597838 7.949486
2005-07-19 09:24:57 51°14.745 2°54.86 20.3149 3.143281 21.570216 8.151742
2005-07-19 09:25:02 51°14.761 2°54.852 20.1612 3.579005 24.809094 8.28658
2005-07-19 09:25:07 51°14.775 2°54.845 20.1329 3.635585 25.246379 8.488836
2005-07-19 09:25:12 51°14.791 2°54.838 20.1137 3.63527 25.299684 8.522546
2005-07-19 09:25:16 51°14.803 2°54.831 20.1038 3.63527 25.299684 8.522546
2005-07-19 09:25:22 51°14.824 2°54.821 20.0975 3.879131 27.27152 8.589965
2005-07-19 09:25:27 51°14.84 2°54.814 20.0931 4.058015 28.681941 8.28658
2005-07-19 09:25:32 51°14.855 2°54.806 20.0908 4.089433 28.958307 8.556255
2005-07-19 09:25:37 51°14.871 2°54.798 20.0897 4.14394 29.393338 8.219161
2005-07-19 09:25:41 51°14.883 2°54.792 20.0889 3.775952 26.523542 8.927059
2005-07-19 09:25:47 51°14.901 2°54.782 20.0915 3.775952 26.523542 8.927059
2005-07-19 09:25:52 51°14.918 2°54.774 20.0922 3.508423 24.473726 8.353999
2005-07-19 09:25:56 51°14.929 2°54.768 20.091 3.183399 21.995323 8.050614
2005-07-19 09:26:02 51°14.948 2°54.759 20.0906 3.473238 24.244227 8.522546
2005-07-19 09:26:07 51°14.964 2°54.752 20.0906 3.873337 27.374378 8.050614
2005-07-19 09:26:12 51°14.979 2°54.744 20.0941 3.53592 24.750574 8.421418
2005-07-19 09:26:17 51°14.994 2°54.737 20.0941 3.53592 24.750574 8.421418
2005-07-19 09:26:22 51°15.01 2°54.729 20.0981 2.462302 16.623305 8.084324
2005-07-19 09:26:27 51°15.025 2°54.723 20.0996 3.308819 23.01217 8.758512
2005-07-19 09:26:32 51°15.039 2°54.716 20.0992 2.71188 18.487672 8.016905
2005-07-19 09:26:37 51°15.056 2°54.707 20.1058 3.54751 24.859715 8.421418
2005-07-19 09:26:41 51°15.069 2°54.701 20.1034 4.093969 29.143992 7.915777
2005-07-19 09:26:47 51°15.086 2°54.692 20.102 4.093969 29.143992 7.915777
2005-07-19 09:26:52 51°15.1 2°54.686 20.1013 4.275111 30.583339 8.016905
2005-07-19 09:26:57 51°15.118 2°54.677 20.1021 4.112419 29.294668 7.949486
2005-07-19 09:27:02 51°15.133 2°54.669 20.1052 3.79798 26.814206 8.185452
2005-07-19 09:27:07 51°15.149 2°54.662 20.1116 3.887777 27.518296 8.219161
2005-07-19 09:27:12 51°15.162 2°54.656 20.123 4.236729 30.280234 8.353999
2005-07-19 09:27:16 51°15.177 2°54.649 20.1077 4.236729 30.280234 8.353999
2005-07-19 09:27:22 51°15.195 2°54.639 20.1069 4.272264 30.560109 8.455127
2005-07-19 09:27:27 51°15.211 2°54.633 20.1114 4.175468 29.767824 8.050614
2005-07-19 09:27:32 51°15.225 2°54.626 20.0985 3.933839 27.85134 8.556255
2005-07-19 09:27:37 51°15.242 2°54.619 20.116 3.354001 23.344912 8.488836
2005-07-19 09:27:42 51°15.258 2°54.613 20.0892 3.287756 22.836479 8.556255
2005-07-19 09:27:47 51°15.274 2°54.606 20.067 3.287756 22.836479 8.556255
2005-07-19 09:27:52 51°15.29 2°54.6 20.0601 3.803459 26.766743 8.792221
2005-07-19 09:27:57 51°15.306 2°54.593 20.0497 3.791233 26.651918 8.623674
2005-07-19 09:28:02 51°15.322 2°54.587 20.0385 3.846565 27.10646 9.904631
2005-07-19 09:28:07 51°15.338 2°54.581 20.0315 4.064554 28.854515 9.129315
2005-07-19 09:28:12 51°15.352 2°54.576 20.0261 4.179157 29.767545 8.185452
2005-07-19 09:28:16 51°15.367 2°54.57 20.0222 4.179157 29.767545 8.185452
2005-07-19 09:28:22 51°15.386 2°54.564 20.0187 4.246218 30.317649 8.522546
2005-07-19 09:28:27 51°15.403 2°54.559 20.0141 4.211317 30.053848 8.455127
2005-07-19 09:28:32 51°15.417 2°54.552 20.0081 4.206678 30.028887 8.118033
2005-07-19 09:28:37 51°15.434 2°54.547 20.0037 3.453224 24.125172 8.455127
2005-07-19 09:28:41 51°15.447 2°54.541 20 3.507687 24.552608 8.387708
2005-07-19 09:28:47 51°15.465 2°54.535 19.9984 3.507687 24.552608 8.387708
2005-07-19 09:28:52 51°15.483 2°54.529 19.9945 3.243106 22.522953 8.219161
2005-07-19 09:28:57 51°15.499 2°54.522 19.9898 3.216043 22.322997 8.084324
2005-07-19 09:29:02 51°15.515 2°54.516 19.9857 3.041165 20.994036 8.421418
2005-07-19 09:29:07 51°15.531 2°54.51 19.9827 2.592702 17.621022 7.882067
2005-07-19 09:29:12 51°15.546 2°54.504 19.9818 3.575535 25.113858 7.780939
2005-07-19 09:29:17 51°15.564 2°54.497 19.9777 3.575535 25.113858 7.780939
2005-07-19 09:29:22 51°15.58 2°54.491 19.9741 3.62358 25.491352 7.882067
2005-07-19 09:29:27 51°15.597 2°54.485 19.9702 3.524228 24.722517 7.780939
2005-07-19 09:29:32 51°15.611 2°54.479 19.9667 3.412144 23.856895 7.443845
2005-07-19 09:29:37 51°15.63 2°54.473 19.9633 2.450527 16.577783 7.74723
2005-07-19 09:29:41 51°15.642 2°54.468 19.9557 3.628006 25.539406 7.410136
2005-07-19 09:29:47 51°15.662 2°54.462 19.9524 3.628006 25.539406 7.410136
2005-07-19 09:29:52 51°15.676 2°54.456 19.9508 2.988849 20.621202 7.241589
2005-07-19 09:29:57 51°15.693 2°54.452 19.9479 3.536975 24.836771 7.106751
2005-07-19 09:30:02 51°15.708 2°54.448 19.9428 3.21478 22.349926 7.14046
2005-07-19 09:30:07 51°15.723 2°54.444 19.9412 3.282176 22.869988 6.735947
2005-07-19 09:30:12 51°15.736 2°54.44 19.9421 3.009481 20.786599 6.702238
2005-07-19 09:30:16 51°15.746 2°54.437 19.9421 3.009481 20.786599 6.702238
2005-07-19 09:30:21 51°15.76 2°54.434 19.9401 2.524448 17.138596 6.499982
2005-07-19 09:30:28 51°15.777 2°54.428 19.9404 3.494204 24.516745 6.466272
2005-07-19 09:30:32 51°15.788 2°54.425 19.9374 3.349158 23.395796 6.331435
2005-07-19 09:30:37 51°15.803 2°54.42 19.9363 3.362956 23.504281 6.230306
2005-07-19 09:30:41 51°15.813 2°54.417 19.9377 3.403928 23.825382 6.162888
2005-07-19 09:30:47 51°15.829 2°54.412 19.9378 3.403928 23.825382 6.162888
2005-07-19 09:30:52 51°15.841 2°54.408 19.9355 3.971683 28.270194 6.162888
2005-07-19 09:30:56 51°15.851 2°54.405 19.9347 3.443851 24.137787 6.162888
2005-07-19 09:31:01 51°15.864 2°54.401 19.9354 3.270908 22.802968 5.792084
2005-07-19 09:31:07 51°15.881 2°54.397 19.9349 3.485671 24.464716 5.926922
2005-07-19 09:31:12 51°15.894 2°54.394 19.9333 3.488621 24.488846 5.792084
2005-07-19 09:31:17 51°15.906 2°54.39 19.932 3.488621 24.488846 5.792084
2005-07-19 09:31:22 51°15.919 2°54.386 19.9315 3.133073 21.747229 5.792084
2005-07-19 09:31:27 51°15.932 2°54.382 19.9311 3.348737 23.406527 5.792084
2005-07-19 09:31:32 51°15.943 2°54.379 19.9324 3.428366 24.023767 5.623537
2005-07-19 09:31:37 51°15.956 2°54.375 19.9319 3.583227 25.227664 5.893212
2005-07-19 09:31:42 51°15.968 2°54.372 19.9339 3.538872 24.883313 5.690956
2005-07-19 09:31:47 51°15.979 2°54.369 19.9361 3.538872 24.883313 5.690956
2005-07-19 09:31:52 51°15.988 2°54.367 19.9353 3.436582 24.08945 5.994341
2005-07-19 09:31:57 51°16 2°54.365 19.934 3.541822 24.908349 5.859503
2005-07-19 09:32:01 51°16.008 2°54.363 19.9322 3.386444 23.702319 5.522409
2005-07-19 09:32:07 51°16.019 2°54.361 19.9303 3.624846 25.556744 5.657247
2005-07-19 09:32:12 51°16.029 2°54.361 19.9308 3.528232 24.803793 5.4887
2005-07-19 09:32:17 51°16.038 2°54.359 19.9305 3.528232 24.803793 5.4887
2005-07-19 09:32:22 51°16.045 2°54.358 19.9319 3.24574 22.617594 5.556118
2005-07-19 09:32:27 51°16.055 2°54.357 19.9316 3.116649 21.626952 5.589828
2005-07-19 09:32:32 51°16.062 2°54.357 19.9321 3.588706 25.274176 5.792084
2005-07-19 09:32:37 51°16.071 2°54.356 19.9313 3.337468 23.323766 5.623537
2005-07-19 09:32:42 51°16.078 2°54.355 19.9282 2.751334 18.85639 5.45499
2005-07-19 09:32:47 51°16.085 2°54.355 19.9274 3.606934 25.417696 5.117896
2005-07-19 09:32:52 51°16.093 2°54.356 19.9277 3.606934 25.417696 5.117896
2005-07-19 09:32:57 51°16.099 2°54.357 19.9278 3.441849 24.133495 5.286443
2005-07-19 09:33:02 51°16.107 2°54.357 19.9253 3.503159 24.609985 5.421281
2005-07-19 09:33:07 51°16.114 2°54.359 19.9216 3.262062 22.743571 5.185315
2005-07-19 09:33:12 51°16.119 2°54.359 19.9245 2.992218 20.678983 4.88193
2005-07-19 09:33:17 51°16.127 2°54.36 19.9242 2.992218 20.678983 4.88193
2005-07-19 09:33:22 51°16.133 2°54.36 19.9244 3.664781 25.869858 5.084187
2005-07-19 09:33:27 51°16.139 2°54.36 19.9227 3.229734 22.496753 5.286443
2005-07-19 09:33:32 51°16.146 2°54.36 19.9213 3.345683 23.390318 4.814512
2005-07-19 09:33:37 51°16.153 2°54.36 19.9216 3.030639 20.972981 4.814512
2005-07-19 09:33:41 51°16.158 2°54.36 19.9214 3.45291 24.222112 4.713383
2005-07-19 09:33:47 51°16.165 2°54.36 19.9209 3.45291 24.222112 4.713383
2005-07-19 09:33:52 51°16.171 2°54.36 19.9185 3.524545 24.779217 4.848221
2005-07-19 09:33:57 51°16.177 2°54.359 19.919 3.323987 23.224716 4.477418
2005-07-19 09:34:02 51°16.182 2°54.36 19.9189 3.506951 24.643981 4.612255
2005-07-19 09:34:07 51°16.188 2°54.359 19.9184 3.339469 23.346198 4.713383
2005-07-19 09:34:12 51°16.193 2°54.359 19.9193 3.43416 24.07947 4.612255
2005-07-19 09:34:17 51°16.198 2°54.359 19.9189 3.43416 24.07947 4.612255
2005-07-19 09:34:22 51°16.202 2°54.359 19.917 3.294393 22.999865 4.443708
2005-07-19 09:34:27 51°16.207 2°54.359 19.917 3.407615 23.874925 4.443708
2005-07-19 09:34:32 51°16.211 2°54.359 19.916 3.247951 22.642125 4.578546
2005-07-19 09:34:37 51°16.215 2°54.36 19.9165 3.716731 26.285567 4.511127
2005-07-19 09:34:41 51°16.218 2°54.36 19.9167 3.440164 24.127641 4.308871
2005-07-19 09:34:47 51°16.223 2°54.361 19.9162 3.440164 24.127641 4.308871
2005-07-19 09:34:52 51°16.227 2°54.362 19.9158 3.395818 23.784348 4.376289
2005-07-19 09:34:57 51°16.23 2°54.362 19.915 2.644873 18.062582 4.072905
2005-07-19 09:35:01 51°16.233 2°54.363 19.9134 3.446484 24.177882 4.34258
2005-07-19 09:35:07 51°16.236 2°54.365 19.9127 3.360955 23.515365 4.612255
2005-07-19 09:35:12 51°16.239 2°54.366 19.9115 3.308821 23.113451 4.207742
2005-07-19 09:35:17 51°16.242 2°54.368 19.9077 3.308821 23.113451 4.207742
2005-07-19 09:35:21 51°16.245 2°54.369 19.9071 3.256797 22.707947 4.072905
2005-07-19 09:35:27 51°16.248 2°54.371 19.9067 3.551199 24.994253 3.971777
2005-07-19 09:35:32 51°16.25 2°54.372 19.9081 3.409406 23.891974 4.174033
2005-07-19 09:35:37 51°16.253 2°54.374 19.9073 3.498734 24.585395 4.174033
2005-07-19 09:35:42 51°16.255 2°54.375 19.9055 3.494099 24.548126 3.971777
2005-07-19 09:35:47 51°16.258 2°54.376 19.9016 3.494099 24.548126 3.971777
2005-07-19 09:35:51 51°16.261 2°54.377 19.8991 3.15392 21.921038 4.039195
2005-07-19 09:35:57 51°16.263 2°54.378 19.8998 3.430684 24.059313 4.376289
2005-07-19 09:36:01 51°16.266 2°54.378 19.8998 3.593237 25.324682 4.275161
2005-07-19 09:36:07 51°16.268 2°54.379 19.8988 3.417306 23.956781 4.275161
2005-07-19 09:36:12 51°16.27 2°54.38 19.9003 3.500736 24.605462 4.140324
2005-07-19 09:36:17 51°16.272 2°54.38 19.9009 3.500736 24.605462 4.140324
2005-07-19 09:36:21 51°16.274 2°54.38 19.8993 3.155816 21.941032 4.039195
2005-07-19 09:36:27 51°16.276 2°54.38 19.8989 3.544457 24.947106 4.072905
2005-07-19 09:36:32 51°16.278 2°54.379 19.8973 3.462496 24.309848 3.836939
2005-07-19 09:36:37 51°16.279 2°54.38 19.8961 3.471556 24.381039 4.140324
2005-07-19 09:36:42 51°16.28 2°54.38 19.8965 3.691651 26.099785 4.005486
2005-07-19 09:36:47 51°16.281 2°54.38 19.8983 3.691651 26.099785 4.005486
2005-07-19 09:36:52 51°16.282 2°54.38 19.8987 3.149183 21.894905 4.174033
2005-07-19 09:36:57 51°16.282 2°54.38 19.8961 3.472082 24.38716 4.005486
2005-07-19 09:37:02 51°16.282 2°54.38 19.8956 3.431843 24.075106 3.870648
2005-07-19 09:37:07 51°16.282 2°54.379 19.8942 3.210253 22.363762 3.938067
2005-07-19 09:37:12 51°16.282 2°54.379 19.8929 3.222257 22.456439 4.005486
2005-07-19 09:37:16 51°16.281 2°54.379 19.896 3.222257 22.456439 4.005486
2005-07-19 09:37:22 51°16.28 2°54.378 19.8972 3.613045 25.48703 3.971777
2005-07-19 09:37:27 51°16.279 2°54.378 19.8958 3.132231 21.765704 4.005486
2005-07-19 09:37:32 51°16.278 2°54.378 19.8954 2.562624 17.457561 4.140324
2005-07-19 09:37:37 51°16.277 2°54.377 19.8971 2.785108 19.126697 4.443708
2005-07-19 09:37:41 51°16.276 2°54.377 19.8967 3.651399 25.788325 4.005486
2005-07-19 09:37:47 51°16.274 2°54.376 19.8947 3.651399 25.788325 4.005486
2005-07-19 09:37:52 51°16.273 2°54.375 19.9012 3.667837 25.916189 4.174033
2005-07-19 09:37:57 51°16.271 2°54.374 19.9051 3.438374 24.128993 3.938067
2005-07-19 09:38:02 51°16.269 2°54.373 19.9051 2.001191 13.322647 4.072905
2005-07-19 09:38:07 51°16.268 2°54.372 19.9069 3.150762 21.909199 3.938067
2005-07-19 09:38:12 51°16.267 2°54.371 19.9045 3.116228 21.644927 4.039195
2005-07-19 09:38:17 51°16.266 2°54.369 19.9008 3.591025 25.317518 4.511127
2005-07-19 09:38:22 51°16.265 2°54.367 19.9061 3.591025 25.317518 4.511127
2005-07-19 09:38:27 51°16.264 2°54.365 19.9009 3.112438 21.615547 4.140324
2005-07-19 09:38:32 51°16.264 2°54.363 19.9 3.524545 24.797358 4.679674
2005-07-19 09:38:37 51°16.263 2°54.361 19.8958 3.325883 23.255577 4.207742
2005-07-19 09:38:41 51°16.263 2°54.359 19.9005 3.313139 23.156391 4.241452
2005-07-19 09:38:47 51°16.263 2°54.356 19.9003 3.313139 23.156391 4.241452
2005-07-19 09:38:52 51°16.263 2°54.355 19.9006 3.525388 24.801034 4.207742
2005-07-19 09:38:57 51°16.263 2°54.353 19.8961 3.160343 21.979037 4.207742
2005-07-19 09:39:02 51°16.262 2°54.351 19.893 3.024113 20.937832 4.241452
2005-07-19 09:39:07 51°16.262 2°54.349 19.8867 3.550778 24.998038 4.443708
2005-07-19 09:39:12 51°16.263 2°54.347 19.8895 3.335572 23.328115 4.511127
2005-07-19 09:39:16 51°16.263 2°54.345 19.886 3.335572 23.328115 4.511127
2005-07-19 09:39:21 51°16.262 2°54.342 19.8874 3.401085 23.836623 4.443708
2005-07-19 09:39:27 51°16.262 2°54.339 19.8878 3.183402 22.158207 4.376289
2005-07-19 09:39:32 51°16.262 2°54.336 19.8877 3.699976 26.167676 4.174033
2005-07-19 09:39:37 51°16.262 2°54.333 19.8844 3.465024 24.333938 4.409999
2005-07-19 09:39:41 51°16.261 2°54.332 19.8853 3.639176 25.692662 4.477418
2005-07-19 09:39:47 51°16.261 2°54.33 19.8827 3.08475 21.405467 4.814512
2005-07-19 09:39:52 51°16.26 2°54.328 19.882 3.08475 21.405467 4.814512
2005-07-19 09:39:57 51°16.259 2°54.326 19.88 3.16624 22.029761 4.443708
2005-07-19 09:40:02 51°16.258 2°54.325 19.8801 3.296394 23.030983 4.477418
2005-07-19 09:40:07 51°16.257 2°54.324 19.8801 2.998429 20.748279 4.645965
2005-07-19 09:40:12 51°16.256 2°54.323 19.8799 3.328411 23.280524 4.477418
2005-07-19 09:40:17 51°16.255 2°54.323 19.8755 3.04443 21.099841 4.409999
2005-07-19 09:40:21 51°16.254 2°54.321 19.8725 3.04443 21.099841 4.409999
2005-07-19 09:40:27 51°16.253 2°54.321 19.8692 2.377566 16.085266 4.34258
2005-07-19 09:40:32 51°16.252 2°54.32 19.8689 3.754668 26.605534 4.511127
2005-07-19 09:40:37 51°16.251 2°54.319 19.8666 3.605459 25.433672 4.308871
2005-07-19 09:40:41 51°16.25 2°54.319 19.8641 2.641718 18.053904 5.016768
2005-07-19 09:40:47 51°16.249 2°54.319 19.8649 2.641718 18.053904 5.016768
2005-07-19 09:40:52 51°16.248 2°54.319 19.8631 3.613888 25.502958 4.443708
2005-07-19 09:40:57 51°16.248 2°54.319 19.8633 3.481458 24.471025 4.409999
2005-07-19 09:41:01 51°16.248 2°54.32 19.8637 3.170346 22.068246 4.477418
2005-07-19 09:41:07 51°16.248 2°54.32 19.8661 3.572376 25.181148 4.443708
2005-07-19 09:41:12 51°16.248 2°54.32 19.8637 3.116123 21.654196 4.477418
2005-07-19 09:41:17 51°16.248 2°54.319 19.8616 3.116123 21.654196 4.477418
2005-07-19 09:41:22 51°16.248 2°54.319 19.861 3.171926 22.082577 4.308871
2005-07-19 09:41:27 51°16.249 2°54.319 19.8631 3.305873 23.115669 4.477418
2005-07-19 09:41:32 51°16.249 2°54.318 19.863 3.675635 25.994595 4.612255
2005-07-19 09:41:37 51°16.25 2°54.319 19.8642 3.295763 23.03875 4.241452
2005-07-19 09:41:42 51°16.251 2°54.318 19.8638 3.456492 24.28422 4.477418
2005-07-19 09:41:47 51°16.251 2°54.318 19.8641 3.563948 25.12205 4.34258
2005-07-19 09:41:52 51°16.252 2°54.318 19.8614 3.563948 25.12205 4.34258
2005-07-19 09:41:57 51°16.253 2°54.318 19.8618 3.339259 23.376814 4.747093
2005-07-19 09:42:01 51°16.254 2°54.317 19.8609 3.395924 23.816836 4.443708
2005-07-19 09:42:07 51°16.255 2°54.317 19.8589 3.448381 24.223609 4.409999
2005-07-19 09:42:12 51°16.255 2°54.317 19.859 3.330623 23.311962 4.848221
2005-07-19 09:42:17 51°16.256 2°54.317 19.8617 3.330623 23.311962 4.848221
2005-07-19 09:42:21 51°16.256 2°54.317 19.86 4.001939 28.574054 4.679674
2005-07-19 09:42:27 51°16.257 2°54.317 19.8579 3.238158 22.597183 5.151606
2005-07-19 09:42:32 51°16.257 2°54.317 19.8589 3.232577 22.554573 4.747093
2005-07-19 09:42:37 51°16.258 2°54.316 19.8606 3.464182 24.346428 4.949349
2005-07-19 09:42:41 51°16.258 2°54.316 19.8602 2.928436 20.23022 4.645965
2005-07-19 09:42:47 51°16.258 2°54.316 19.8599 2.928436 20.23022 4.645965
2005-07-19 09:42:52 51°16.258 2°54.316 19.8576 3.594502 25.366211 4.612255
2005-07-19 09:42:57 51°16.258 2°54.316 19.8574 3.490729 24.554177 4.477418
2005-07-19 09:43:02 51°16.259 2°54.316 19.8549 3.280387 22.924275 4.578546
2005-07-19 09:43:07 51°16.258 2°54.317 19.8542 3.303451 23.101958 4.409999
2005-07-19 09:43:12 51°16.258 2°54.317 19.855 3.16803 22.060365 4.511127
2005-07-19 09:43:17 51°16.258 2°54.317 19.8556 3.16803 22.060365 4.511127
2005-07-19 09:43:21 51°16.258 2°54.318 19.8553 2.226425 14.979454 4.308871
2005-07-19 09:43:27 51°16.258 2°54.317 19.8545 3.125072 21.729994 5.084187
2005-07-19 09:43:32 51°16.259 2°54.318 19.8541 3.551305 25.02755 4.747093
2005-07-19 09:43:37 51°16.259 2°54.318 19.8539 3.540664 24.944114 4.511127
2005-07-19 09:43:41 51°16.259 2°54.318 19.8545 2.969168 20.539107 4.544836
2005-07-19 09:43:47 51°16.259 2°54.319 19.8574 2.969168 20.539107 4.544836
2005-07-19 09:43:52 51°16.259 2°54.32 19.8556 3.500631 24.634149 4.511127
2005-07-19 09:43:57 51°16.26 2°54.321 19.8546 3.452384 24.259159 4.34258
2005-07-19 09:44:01 51°16.26 2°54.321 19.8531 3.59092 25.338208 4.511127
2005-07-19 09:44:07 51°16.26 2°54.322 19.8528 3.356637 23.5152 4.511127
2005-07-19 09:44:11 51°16.26 2°54.322 19.8554 3.306505 23.129016 4.376289
2005-07-19 09:44:17 51°16.26 2°54.324 19.857 3.306505 23.129016 4.376289
2005-07-19 09:44:21 51°16.26 2°54.324 19.8576 3.470503 24.400049 4.544836
2005-07-19 09:44:27 51°16.261 2°54.326 19.8555 3.160133 22.001185 4.679674
2005-07-19 09:44:32 51°16.261 2°54.327 19.8553 3.481142 24.482831 4.679674
2005-07-19 09:44:37 51°16.262 2°54.329 19.8537 4.131505 29.610305 4.34258
2005-07-19 09:44:41 51°16.262 2°54.329 19.8531 3.201619 22.320028 4.645965
2005-07-19 09:44:47 51°16.262 2°54.33 19.8519 3.201619 22.320028 4.645965
2005-07-19 09:44:51 51°16.262 2°54.331 19.8506 3.22131 22.471935 4.275161
2005-07-19 09:44:57 51°16.263 2°54.333 19.8492 3.443536 24.190391 4.443708
2005-07-19 09:45:01 51°16.263 2°54.333 19.8484 3.014745 20.887913 4.409999
2005-07-19 09:45:07 51°16.263 2°54.335 19.8481 3.50632 24.678048 4.544836
2005-07-19 09:45:11 51°16.263 2°54.336 19.849 3.047483 21.137552 4.376289
2005-07-19 09:45:17 51°16.263 2°54.337 19.85 3.047483 21.137552 4.376289
2005-07-19 09:45:22 51°16.263 2°54.338 19.8483 3.514643 24.742892 4.275161
2005-07-19 09:45:27 51°16.263 2°54.339 19.8484 2.997798 20.758987 4.91564
2005-07-19 09:45:32 51°16.263 2°54.34 19.8479 3.575959 25.222558 4.376289
2005-07-19 09:45:37 51°16.263 2°54.34 19.8471 3.566055 25.14604 4.848221
2005-07-19 09:45:41 51°16.263 2°54.341 19.8488 3.592395 25.352273 4.106614
2005-07-19 09:45:47 51°16.263 2°54.342 19.8482 3.592395 25.352273 4.106614
2005-07-19 09:45:52 51°16.263 2°54.342 19.8498 3.425839 24.054937 4.578546
2005-07-19 09:45:57 51°16.263 2°54.343 19.8481 3.167609 22.061168 4.443708
2005-07-19 09:46:01 51°16.263 2°54.343 19.8482 3.384865 23.738215 4.578546
2005-07-19 09:46:07 51°16.263 2°54.344 19.8494 3.344736 23.427371 4.713383
2005-07-19 09:46:12 51°16.263 2°54.344 19.8508 2.865186 19.753374 4.443708
2005-07-19 09:46:17 51°16.263 2°54.345 19.8502 2.865186 19.753374 4.443708
2005-07-19 09:46:21 51°16.263 2°54.345 19.8491 3.606092 25.461507 4.376289
2005-07-19 09:46:28 51°16.263 2°54.346 19.8497 3.480932 24.484454 5.151606
2005-07-19 09:46:32 51°16.263 2°54.346 19.8488 3.350634 23.472635 4.409999
2005-07-19 09:46:37 51°16.264 2°54.347 19.8479 3.483565 24.502912 4.477418
2005-07-19 09:46:41 51°16.263 2°54.348 19.8498 2.613529 17.857479 4.376289
2005-07-19 09:46:47 51°16.264 2°54.348 19.8495 2.613529 17.857479 4.376289
2005-07-19 09:46:52 51°16.264 2°54.348 19.8521 2.450213 16.637614 4.34258
2005-07-19 09:46:57 51°16.264 2°54.348 19.8539 3.801777 26.997436 4.34258
2005-07-19 09:47:01 51°16.264 2°54.349 19.8549 3.488095 24.540217 4.544836
2005-07-19 09:47:07 51°16.264 2°54.349 19.8521 3.21436 22.421422 4.511127
2005-07-19 09:47:12 51°16.265 2°54.349 19.8507 3.237843 22.601894 4.34258
2005-07-19 09:47:17 51°16.264 2°54.35 19.8496 3.237843 22.601894 4.34258
2005-07-19 09:47:22 51°16.265 2°54.35 19.8494 3.129916 21.771835 4.409999
2005-07-19 09:47:27 51°16.265 2°54.351 19.8496 3.399611 23.851777 4.376289
2005-07-19 09:47:32 51°16.265 2°54.351 19.8507 3.195512 22.27565 4.477418
2005-07-19 09:47:37 51°16.264 2°54.352 19.8513 3.220678 22.467819 4.612255
2005-07-19 09:47:41 51°16.264 2°54.353 19.8524 3.360113 23.544855 4.612255
2005-07-19 09:47:47 51°16.264 2°54.353 19.8492 3.360113 23.544855 4.612255
2005-07-19 09:47:52 51°16.264 2°54.354 19.8484 3.204041 22.340146 4.544836
2005-07-19 09:47:57 51°16.263 2°54.355 19.8471 3.308085 23.142378 4.645965
2005-07-19 09:48:02 51°16.263 2°54.356 19.8481 3.604722 25.44952 4.679674
2005-07-19 09:48:07 51°16.263 2°54.356 19.8488 3.49705 24.607894 4.241452
2005-07-19 09:48:12 51°16.262 2°54.357 19.8493 3.272068 22.86465 4.409999
2005-07-19 09:48:17 51°16.262 2°54.358 19.8509 3.272068 22.86465 4.409999
2005-07-19 09:48:21 51°16.262 2°54.359 19.8514 3.078539 21.377154 4.645965
2005-07-19 09:48:27 51°16.262 2°54.359 19.8512 3.627797 25.627961 4.477418
2005-07-19 09:48:32 51°16.262 2°54.36 19.8516 3.507479 24.687487 4.34258
2005-07-19 09:48:37 51°16.262 2°54.36 19.8518 3.279439 22.92192 4.612255
2005-07-19 09:48:41 51°16.262 2°54.361 19.8516 3.445116 24.205491 4.780802
2005-07-19 09:48:47 51°16.262 2°54.362 19.8515 3.445116 24.205491 4.780802
2005-07-19 09:48:51 51°16.262 2°54.362 19.8518 3.389499 23.773752 4.443708
2005-07-19 09:48:57 51°16.262 2°54.363 19.8502 3.175085 22.118607 4.477418
2005-07-19 09:49:01 51°16.263 2°54.364 19.8509 2.855925 19.682852 5.016768
2005-07-19 09:49:07 51°16.263 2°54.365 19.8502 3.491782 24.569334 4.713383
2005-07-19 09:49:12 51°16.263 2°54.365 19.85 3.26796 22.832583 4.477418
2005-07-19 09:49:17 51°16.263 2°54.366 19.8495 3.26796 22.832583 4.477418
2005-07-19 09:49:21 51°16.264 2°54.366 19.8487 3.50769 24.692008 4.713383
2005-07-19 09:49:27 51°16.265 2°54.367 19.8479 3.617155 25.547221 4.612255
2005-07-19 09:49:32 51°16.265 2°54.368 19.848 3.628008 25.629611 4.645965
2005-07-19 09:49:37 51°16.266 2°54.369 19.8478 3.395187 23.816274 4.983059
2005-07-19 09:49:41 51°16.266 2°54.37 19.8481 2.74902 18.873704 4.983059
2005-07-19 09:49:47 51°16.267 2°54.371 19.8493 2.74902 18.873704 4.983059
2005-07-19 09:49:52 51°16.267 2°54.372 19.8498 3.360956 23.552165 4.34258
2005-07-19 09:49:57 51°16.269 2°54.372 19.8492 3.781015 26.831584 4.747093
2005-07-19 09:50:01 51°16.269 2°54.373 19.8511 3.516328 24.758089 4.814512
2005-07-19 09:50:07 51°16.27 2°54.374 19.8506 2.651395 18.138832 4.645965
2005-07-19 09:50:11 51°16.271 2°54.374 19.8536 3.331465 23.324301 4.645965
2005-07-19 09:50:17 51°16.272 2°54.375 19.8543 3.331465 23.324301 4.645965
2005-07-19 09:50:21 51°16.272 2°54.376 19.8559 3.166661 22.053521 4.713383
2005-07-19 09:50:27 51°16.274 2°54.377 19.8565 2.978957 20.617778 4.91564
2005-07-19 09:50:32 51°16.274 2°54.377 19.856 3.565002 25.13865 4.679674
2005-07-19 09:50:37 51°16.275 2°54.378 19.8564 3.198565 22.299137 4.544836
2005-07-19 09:50:42 51°16.276 2°54.379 19.8554 3.303451 23.108497 4.780802
2005-07-19 09:50:47 51°16.277 2°54.379 19.858 3.418676 23.997726 4.645965
2005-07-19 09:50:52 51°16.278 2°54.38 19.8586 3.418676 23.997726 4.645965
2005-07-19 09:50:57 51°16.278 2°54.38 19.8594 3.714413 26.308106 5.286443
2005-07-19 09:51:01 51°16.278 2°54.381 19.8599 3.27786 22.908584 5.117896
2005-07-19 09:51:08 51°16.279 2°54.381 19.8605 3.370962 23.627706 4.612255
2005-07-19 09:51:12 51°16.28 2°54.382 19.861 3.282704 22.944446 4.780802
2005-07-19 09:51:17 51°16.28 2°54.383 19.8611 3.282704 22.944446 4.780802
2005-07-19 09:51:22 51°16.281 2°54.384 19.8611 3.153921 21.95276 4.747093
2005-07-19 09:51:27 51°16.281 2°54.384 19.8626 3.404456 23.886183 4.679674
2005-07-19 09:51:32 51°16.282 2°54.384 19.8633 3.215729 22.42748 4.679674
2005-07-19 09:51:37 51°16.283 2°54.386 19.8619 3.282599 22.94287 4.578546
2005-07-19 09:51:41 51°16.283 2°54.386 19.8625 3.340944 23.392964 4.477418
2005-07-19 09:51:47 51°16.283 2°54.386 19.8638 3.340944 23.392964 4.477418
2005-07-19 09:51:52 51°16.283 2°54.387 19.8642 3.392132 23.784269 4.747093
2005-07-19 09:51:57 51°16.284 2°54.387 19.865 2.886023 19.90646 4.308871
2005-07-19 09:52:01 51°16.285 2°54.387 19.8666 3.145498 21.885927 4.747093
2005-07-19 09:52:07 51°16.285 2°54.386 19.8669 3.527285 24.838948 4.713383
2005-07-19 09:52:11 51°16.286 2°54.386 19.8665 3.209095 22.373824 4.91564
2005-07-19 09:52:17 51°16.286 2°54.385 19.867 2.945696 20.359112 4.645965
2005-07-19 09:52:21 51°16.287 2°54.385 19.8214 2.945696 20.359112 4.645965
2005-07-19 09:52:27 51°16.288 2°54.384 20.1816 3.49431 24.58206 4.511127
2005-07-19 09:52:32 51°16.288 2°54.384 20.2461 2.980851 20.626727 4.612255
2005-07-19 09:52:36 51°16.289 2°54.383 19.8802 4.272162 30.735382 4.645965
2005-07-19 09:52:41 51°16.29 2°54.382 19.8592 4.318349 31.100741 4.780802
2005-07-19 09:52:47 51°16.291 2°54.381 19.8482 4.318349 31.100741 4.780802
2005-07-19 09:52:52 51°16.292 2°54.38 19.8445 2.443694 16.583639 4.88193
2005-07-19 09:52:57 51°16.293 2°54.378 19.8428 2.976746 20.593745 5.016768
2005-07-19 09:53:01 51°16.294 2°54.377 19.8419 3.724845 26.372493 4.511127
2005-07-19 09:53:07 51°16.295 2°54.375 19.8394 3.287021 22.924373 4.645965
2005-07-19 09:53:12 51°16.296 2°54.374 19.8391 3.468079 24.329346 4.780802
2005-07-19 09:53:16 51°16.297 2°54.374 19.8366 3.468079 24.329346 4.780802
2005-07-19 09:53:21 51°16.298 2°54.372 19.8343 3.880296 27.577863 4.949349
2005-07-19 09:53:28 51°16.299 2°54.371 19.8329 4.201303 30.152239 4.88193
2005-07-19 09:53:32 51°16.3 2°54.369 19.8365 4.244641 30.522739 5.050477
2005-07-19 09:53:37 51°16.301 2°54.367 19.8383 4.274166 30.771527 4.814512
2005-07-19 09:53:41 51°16.301 2°54.366 19.8393 4.306328 31.034721 5.117896
2005-07-19 09:53:47 51°16.302 2°54.364 19.8431 4.306328 31.034721 5.117896
2005-07-19 09:53:52 51°16.302 2°54.362 19.8464 4.291987 30.924563 4.91564
2005-07-19 09:53:57 51°16.303 2°54.359 19.8424 4.293041 30.935114 4.578546
2005-07-19 09:54:02 51°16.303 2°54.357 19.8385 4.245485 30.557095 5.084187
2005-07-19 09:54:07 51°16.304 2°54.354 19.8359 4.305063 31.037528 4.91564
2005-07-19 09:54:12 51°16.304 2°54.351 19.838 4.269105 30.748875 5.117896
2005-07-19 09:54:17 51°16.304 2°54.349 19.8415 4.287558 30.897744 5.050477
2005-07-19 09:54:21 51°16.303 2°54.347 19.8456 4.287558 30.897744 5.050477
2005-07-19 09:54:27 51°16.303 2°54.343 19.8448 4.311074 31.084342 5.219024
2005-07-19 09:54:32 51°16.303 2°54.34 19.8417 4.233886 30.460933 4.88193
2005-07-19 09:54:37 51°16.303 2°54.338 19.8385 4.306223 31.044264 5.084187
2005-07-19 09:54:41 51°16.302 2°54.335 19.8319 4.310757 31.081275 4.848221
2005-07-19 09:54:47 51°16.302 2°54.332 19.8351 4.310757 31.081275 4.848221
2005-07-19 09:54:52 51°16.301 2°54.329 19.8337 4.311179 31.087272 5.084187
2005-07-19 09:54:57 51°16.3 2°54.327 19.8333 4.310335 31.079962 5.084187
2005-07-19 09:55:02 51°16.299 2°54.325 19.836 4.302848 31.017631 4.578546
2005-07-19 09:55:07 51°16.298 2°54.322 19.8349 4.311179 31.083629 5.286443
2005-07-19 09:55:12 51°16.297 2°54.32 19.8344 4.312128 31.092829 5.623537
2005-07-19 09:55:17 51°16.296 2°54.318 19.8344 4.312128 31.092829 5.623537
2005-07-19 09:55:21 51°16.295 2°54.316 19.8412 4.313604 31.106275 4.88193
2005-07-19 09:55:27 51°16.293 2°54.313 19.8451 4.307699 31.060304 5.050477
2005-07-19 09:55:32 51°16.292 2°54.311 19.8478 4.301372 31.010425 5.084187
2005-07-19 09:55:37 51°16.291 2°54.31 19.8505 4.306328 31.05135 4.91564
2005-07-19 09:55:41 51°16.29 2°54.309 19.8508 4.296627 30.972244 4.88193
2005-07-19 09:55:47 51°16.289 2°54.307 19.8474 4.296627 30.972244 4.88193
2005-07-19 09:55:52 51°16.288 2°54.305 19.8432 4.300318 31.002459 5.050477
2005-07-19 09:55:57 51°16.287 2°54.303 19.8437 4.30327 31.02518 5.4887
2005-07-19 09:56:01 51°16.286 2°54.302 19.8417 4.31023 31.080674 5.353862
2005-07-19 09:56:07 51°16.285 2°54.3 19.8412 4.314026 31.108108 5.117896
2005-07-19 09:56:12 51°16.284 2°54.299 19.8434 4.304219 31.026064 5.185315
2005-07-19 09:56:17 51°16.283 2°54.297 19.8431 4.304219 31.026064 5.185315
2005-07-19 09:56:21 51°16.283 2°54.296 19.8425 4.132244 29.64641 5.4887
2005-07-19 09:56:27 51°16.282 2°54.294 19.8442 4.320248 31.153501 5.286443
2005-07-19 09:56:32 51°16.281 2°54.293 19.8453 4.320353 31.155915 5.050477
2005-07-19 09:56:37 51°16.281 2°54.291 19.8458 4.320564 31.158135 5.016768
2005-07-19 09:56:41 51°16.281 2°54.289 19.8444 4.319193 31.14762 5.219024
2005-07-19 09:56:47 51°16.28 2°54.287 19.8444 4.319193 31.14762 5.219024
2005-07-19 09:56:52 51°16.279 2°54.285 19.8451 4.319826 31.154278 5.219024
2005-07-19 09:56:57 51°16.279 2°54.283 19.8463 4.319299 31.14899 5.016768
2005-07-19 09:57:01 51°16.279 2°54.282 19.8441 4.319826 31.153756 5.556118
2005-07-19 09:57:07 51°16.279 2°54.279 19.8444 4.320248 31.156631 5.050477
2005-07-19 09:57:12 51°16.279 2°54.277 19.8452 4.317084 31.131162 4.91564
2005-07-19 09:57:16 51°16.279 2°54.275 19.8506 4.317084 31.131162 4.91564
2005-07-19 09:57:22 51°16.279 2°54.272 19.8535 4.318033 31.138803 4.780802
2005-07-19 09:57:27 51°16.279 2°54.27 19.8543 4.317084 31.131162 4.88193
2005-07-19 09:57:32 51°16.279 2°54.268 19.8551 4.318139 31.13913 4.780802
2005-07-19 09:57:37 51°16.279 2°54.266 19.8572 4.320775 31.159833 4.578546
2005-07-19 09:57:42 51°16.279 2°54.264 19.8562 4.319088 31.147292 4.814512
2005-07-19 09:57:48 51°16.279 2°54.262 19.8535 4.317823 31.136583 4.612255
2005-07-19 09:57:52 51°16.279 2°54.261 19.8516 4.317823 31.136583 4.612255
2005-07-19 09:57:57 51°16.278 2°54.258 19.8502 4.32067 31.158462 4.578546
2005-07-19 09:58:02 51°16.278 2°54.257 19.8484 4.322146 31.167739 4.91564
2005-07-19 09:58:07 51°16.278 2°54.255 19.846 4.320986 31.157879 4.544836
2005-07-19 09:58:12 51°16.277 2°54.254 19.8483 4.31951 31.144952 4.747093
2005-07-19 09:58:17 51°16.277 2°54.252 19.8514 4.31951 31.144952 4.747093
2005-07-19 09:58:22 51°16.277 2°54.251 19.8537 4.319088 31.138951 4.544836
2005-07-19 09:58:27 51°16.276 2°54.251 19.8546 4.322673 31.16781 4.544836
2005-07-19 09:58:32 51°16.275 2°54.25 19.8546 4.311917 31.083326 4.713383
2005-07-19 09:58:37 51°16.275 2°54.248 19.856 4.321513 31.161602 4.747093
2005-07-19 09:58:42 51°16.274 2°54.248 19.8574 4.323517 31.178776 4.747093
2005-07-19 09:58:47 51°16.273 2°54.247 19.8588 4.323517 31.178776 4.747093
2005-07-19 09:58:52 51°16.272 2°54.246 19.8593 4.323306 31.178122 4.983059
2005-07-19 09:58:57 51°16.271 2°54.246 19.8596 4.322673 31.172506 4.848221
2005-07-19 09:59:02 51°16.27 2°54.246 19.8582 4.316662 31.122556 4.780802
2005-07-19 09:59:07 51°16.27 2°54.245 19.8563 4.323939 31.181128 4.983059
2005-07-19 09:59:12 51°16.269 2°54.245 19.8524 4.32067 31.152725 4.814512
2005-07-19 09:59:17 51°16.269 2°54.245 19.8527 4.32067 31.152725 4.814512
2005-07-19 09:59:22 51°16.268 2°54.245 19.853 4.319931 31.146784 4.983059
2005-07-19 09:59:27 51°16.267 2°54.246 19.8557 4.321724 31.16017 4.848221
2005-07-19 09:59:32 51°16.266 2°54.246 19.8577 4.319088 31.13843 5.522409
2005-07-19 09:59:37 51°16.266 2°54.246 19.8624 4.31972 31.143001 4.88193
2005-07-19 09:59:42 51°16.265 2°54.246 19.8605 4.318139 31.130791 5.117896
2005-07-19 09:59:47 51°16.264 2°54.247 19.8616 4.318561 31.134707 5.016768
2005-07-19 09:59:52 51°16.264 2°54.248 19.8601 4.318561 31.134707 5.016768
2005-07-19 09:59:57 51°16.263 2°54.248 19.8594 4.312866 31.090443 4.713383
2005-07-19 10:00:02 51°16.263 2°54.249 19.8595 4.317928 31.131699 4.88193
2005-07-19 10:00:07 51°16.262 2°54.25 19.8557 4.309808 31.065315 5.219024
2005-07-19 10:00:12 51°16.262 2°54.251 19.8539 4.321724 31.16017 5.050477
2005-07-19 10:00:17 51°16.261 2°54.252 19.8544 4.321724 31.16017 5.050477
2005-07-19 10:00:22 51°16.261 2°54.252 19.8531 4.320775 31.151488 4.91564
2005-07-19 10:00:28 51°16.26 2°54.254 19.8563 4.316135 31.113626 5.084187
2005-07-19 10:00:32 51°16.26 2°54.255 19.8567 4.322357 31.163699 4.848221
2005-07-19 10:00:37 51°16.259 2°54.256 19.8565 4.32299 31.16827 4.983059
2005-07-19 10:00:42 51°16.259 2°54.257 19.8531 4.32415 31.178129 4.612255
2005-07-19 10:00:48 51°16.259 2°54.258 19.8532 4.32415 31.178129 4.612255
2005-07-19 10:00:52 51°16.258 2°54.259 19.8525 4.32415 31.179694 4.814512
2005-07-19 10:00:57 51°16.258 2°54.261 19.855 4.323517 31.176166 4.713383
2005-07-19 10:01:02 51°16.257 2°54.263 19.8551 4.32183 31.162062 4.747093
2005-07-19 10:01:07 51°16.257 2°54.264 19.8556 4.323517 31.176166 4.780802
2005-07-19 10:01:12 51°16.257 2°54.266 19.8552 4.323095 31.171727 4.443708
2005-07-19 10:01:17 51°16.256 2°54.267 19.8568 4.318666 31.138683 5.050477
2005-07-19 10:01:22 51°16.257 2°54.269 19.8557 4.318666 31.138683 5.050477
2005-07-19 10:01:27 51°16.256 2°54.271 19.8545 4.320142 31.149002 4.713383
2005-07-19 10:01:32 51°16.256 2°54.273 19.8528 4.322884 31.172116 4.612255
2005-07-19 10:01:37 51°16.256 2°54.275 19.8546 4.324044 31.180933 4.91564
2005-07-19 10:01:42 51°16.256 2°54.277 19.856 4.323095 31.173814 4.612255
2005-07-19 10:01:47 51°16.256 2°54.279 19.8589 4.320248 31.149851 4.544836
2005-07-19 10:01:52 51°16.256 2°54.281 19.8614 4.320248 31.149851 4.544836
2005-07-19 10:01:57 51°16.256 2°54.283 19.8622 4.31719 31.124716 4.511127
2005-07-19 10:02:01 51°16.256 2°54.285 19.8635 4.321619 31.160886 4.814512
2005-07-19 10:02:07 51°16.257 2°54.287 19.8663 4.322146 31.165131 4.88193
2005-07-19 10:02:12 51°16.257 2°54.29 19.8675 4.32183 31.163106 4.645965
2005-07-19 10:02:17 51°16.257 2°54.292 19.8697 4.32183 31.163106 4.645965
2005-07-19 10:02:22 51°16.258 2°54.295 19.8727 4.303059 31.01154 4.848221
2005-07-19 10:02:27 51°16.259 2°54.298 19.8721 4.303692 31.015073 4.88193
2005-07-19 10:02:32 51°16.26 2°54.301 19.8729 4.31972 31.14248 4.511127
2005-07-19 10:02:37 51°16.26 2°54.304 19.8712 4.317506 31.123616 4.88193
2005-07-19 10:02:41 51°16.261 2°54.306 19.8699 4.314237 31.097311 4.848221
2005-07-19 10:02:48 51°16.262 2°54.312 19.8687 4.317717 31.12323 4.713383
2005-07-19 10:02:52 51°16.262 2°54.314 19.8685 4.317717 31.12323 4.713383
2005-07-19 10:02:57 51°16.263 2°54.318 19.8669 4.31487 31.097718 4.88193
2005-07-19 10:03:02 51°16.263 2°54.321 19.8666 4.317822 31.120433 4.91564
2005-07-19 10:03:07 51°16.264 2°54.325 19.8664 4.314237 31.090027 5.185315
2005-07-19 10:03:12 51°16.265 2°54.329 19.8673 4.316768 31.109867 5.084187
2005-07-19 10:03:17 51°16.266 2°54.333 19.8676 4.316768 31.109867 5.084187
2005-07-19 10:03:22 51°16.267 2°54.338 19.8673 4.313182 31.081544 4.88193
2005-07-19 10:03:27 51°16.267 2°54.342 19.867 4.314659 31.09394 5.016768
2005-07-19 10:03:32 51°16.268 2°54.346 19.8658 4.322357 31.15692 4.814512
2005-07-19 10:03:37 51°16.269 2°54.35 19.866 4.318982 31.130287 5.151606
2005-07-19 10:03:42 51°16.27 2°54.354 19.8665 4.320248 31.142033 4.88193
2005-07-19 10:03:47 51°16.272 2°54.359 19.8651 4.320248 31.142033 4.88193
2005-07-19 10:03:52 51°16.273 2°54.364 19.8645 4.320037 31.141378 4.91564
2005-07-19 10:03:56 51°16.273 2°54.368 19.8643 4.323095 31.163382 4.91564
2005-07-19 10:04:02 51°16.275 2°54.374 19.8634 4.320037 31.139815 5.117896
2005-07-19 10:04:07 51°16.276 2°54.378 19.8612 4.320142 31.140663 4.747093
2005-07-19 10:04:12 51°16.277 2°54.384 19.8611 4.321091 31.147258 4.91564
2005-07-19 10:04:16 51°16.278 2°54.387 19.8609 4.321091 31.147258 4.91564
2005-07-19 10:04:22 51°16.28 2°54.394 19.862 4.320564 31.144057 5.353862
2005-07-19 10:04:27 51°16.281 2°54.399 19.8611 4.323728 31.169517 5.353862
2005-07-19 10:04:32 51°16.283 2°54.403 19.8608 4.323622 31.16919 5.45499
2005-07-19 10:04:37 51°16.284 2°54.409 19.8604 4.323622 31.16919 5.185315
2005-07-19 10:04:42 51°16.286 2°54.414 19.8575 4.313393 31.087921 5.117896
2005-07-19 10:04:47 51°16.287 2°54.419 19.8549 4.32088 31.149731 5.185315
2005-07-19 10:04:52 51°16.289 2°54.424 19.8574 4.32088 31.149731 5.185315
2005-07-19 10:04:57 51°16.291 2°54.429 19.8587 4.26109 30.67062 5.320153
2005-07-19 10:05:01 51°16.292 2°54.433 19.8589 4.317506 31.123095 5.4887
2005-07-19 10:05:07 51°16.295 2°54.44 19.8581 4.321197 31.152277 5.4887
2005-07-19 10:05:12 51°16.297 2°54.445 19.8588 4.321408 31.155017 5.758375
2005-07-19 10:05:17 51°16.299 2°54.451 19.8573 4.321408 31.155017 5.758375
2005-07-19 10:05:22 51°16.3 2°54.456 19.8579 4.319193 31.137715 5.758375
2005-07-19 10:05:27 51°16.302 2°54.461 19.8596 4.320459 31.149985 5.758375
2005-07-19 10:05:32 51°16.303 2°54.466 19.8617 4.321302 31.157818 5.219024
2005-07-19 10:05:37 51°16.305 2°54.471 19.8633 4.31487 31.103963 5.690956
2005-07-19 10:05:41 51°16.307 2°54.474 19.8633 4.314237 31.098351 6.162888
2005-07-19 10:05:47 51°16.309 2°54.48 19.8625 4.314237 31.098351 6.162888
2005-07-19 10:05:52 51°16.31 2°54.484 19.8626 4.317401 31.12433 5.45499
2005-07-19 10:05:57 51°16.313 2°54.49 19.8636 4.32183 31.159976 5.758375
2005-07-19 10:06:01 51°16.314 2°54.493 19.8601 4.315397 31.108206 6.061759
2005-07-19 10:06:07 51°16.316 2°54.499 19.8613 4.308648 31.053904 5.825794
2005-07-19 10:06:12 51°16.318 2°54.504 19.8584 4.32183 31.158412 6.095469
2005-07-19 10:06:17 51°16.319 2°54.508 19.8588 4.322146 31.159915 5.893212
2005-07-19 10:06:22 51°16.321 2°54.513 19.857 4.322146 31.159915 5.893212
2005-07-19 10:06:27 51°16.323 2°54.518 19.8605 4.319088 31.134782 5.859503
2005-07-19 10:06:32 51°16.325 2°54.523 19.8603 4.319826 31.140723 5.893212
2005-07-19 10:06:36 51°16.326 2°54.527 19.8597 4.322251 31.160242 6.02805
2005-07-19 10:06:41 51°16.328 2°54.532 19.8593 4.311284 31.072514 5.825794
2005-07-19 10:06:47 51°16.33 2°54.538 19.8592 4.313921 31.095285 5.859503
2005-07-19 10:06:52 51°16.332 2°54.542 19.8615 4.313921 31.095285 5.859503
2005-07-19 10:06:57 51°16.334 2°54.547 19.8624 4.316979 31.119373 5.724665
2005-07-19 10:07:01 51°16.335 2°54.551 19.8608 4.310757 31.070352 5.758375
2005-07-19 10:07:08 51°16.338 2°54.557 19.8645 4.312866 31.08576 5.792084
2005-07-19 10:07:12 51°16.338 2°54.561 19.8636 4.316873 31.118003 5.825794
2005-07-19 10:07:17 51°16.34 2°54.566 19.8647 4.316873 31.118003 5.825794
2005-07-19 10:07:21 51°16.342 2°54.57 19.8654 4.313604 31.09274 5.724665
2005-07-19 10:07:27 51°16.344 2°54.575 19.8654 4.315291 31.105796 6.196597
2005-07-19 10:07:32 51°16.345 2°54.58 19.864 4.322779 31.165529 6.129178
2005-07-19 10:07:37 51°16.347 2°54.585 19.8656 4.322989 31.167227 5.825794
2005-07-19 10:07:42 51°16.349 2°54.589 19.8655 4.320986 31.150579 5.724665
2005-07-19 10:07:47 51°16.351 2°54.594 19.8662 4.320986 31.150579 5.724665
2005-07-19 10:07:52 51°16.352 2°54.599 19.8685 4.320248 31.142554 5.893212
2005-07-19 10:07:57 51°16.354 2°54.603 19.8669 4.321408 31.153453 5.859503
2005-07-19 10:08:02 51°16.355 2°54.608 19.8676 4.322568 31.161746 5.758375
2005-07-19 10:08:07 51°16.356 2°54.612 19.8694 4.32204 31.156459 5.792084
2005-07-19 10:08:12 51°16.358 2°54.617 19.8705 4.322146 31.157829 5.960631
2005-07-19 10:08:17 51°16.36 2°54.622 19.8703 4.320775 31.145234 6.162888
2005-07-19 10:08:22 51°16.361 2°54.627 19.8686 4.320775 31.145234 6.162888
2005-07-19 10:08:27 51°16.363 2°54.631 19.8666 4.321408 31.150846 5.825794
2005-07-19 10:08:32 51°16.364 2°54.635 19.8651 4.322462 31.158811 5.589828
2005-07-19 10:08:37 51°16.366 2°54.64 19.8649 4.322251 31.156593 5.994341
2005-07-19 10:08:42 51°16.368 2°54.645 19.8649 4.322146 31.156265 5.893212
2005-07-19 10:08:47 51°16.369 2°54.65 19.8638 4.322568 31.158617 5.724665
2005-07-19 10:08:52 51°16.371 2°54.655 19.8622 4.322568 31.158617 5.724665
2005-07-19 10:08:57 51°16.372 2°54.659 19.8635 4.320986 31.144846 5.522409
2005-07-19 10:09:02 51°16.373 2°54.664 19.8633 4.322778 31.160315 5.792084
2005-07-19 10:09:07 51°16.375 2°54.669 19.8663 4.323095 31.16286 5.758375
2005-07-19 10:09:12 51°16.377 2°54.674 19.864 4.323517 31.166255 5.758375
2005-07-19 10:09:17 51°16.378 2°54.678 19.8654 4.323517 31.166255 5.758375
2005-07-19 10:09:22 51°16.38 2°54.683 19.8667 4.3232 31.165273 5.657247
2005-07-19 10:09:27 51°16.381 2°54.688 19.8697 4.323411 31.166971 5.657247
2005-07-19 10:09:32 51°16.383 2°54.693 19.8681 4.322884 31.16377 5.926922
2005-07-19 10:09:37 51°16.384 2°54.698 19.867 4.321302 31.150519 5.623537
2005-07-19 10:09:42 51°16.385 2°54.702 19.8664 4.321197 31.150192 5.792084
2005-07-19 10:09:47 51°16.386 2°54.708 19.8677 4.321197 31.150192 5.792084
2005-07-19 10:09:52 51°16.385 2°54.712 19.8696 4.321724 31.153913 5.724665
2005-07-19 10:09:57 51°16.385 2°54.718 19.8727 4.318244 31.125389 5.792084
2005-07-19 10:10:02 51°16.385 2°54.723 19.8721 4.321197 31.148628 5.657247
2005-07-19 10:10:07 51°16.384 2°54.728 19.8741 4.317928 31.121281 5.219024
2005-07-19 10:10:12 51°16.382 2°54.732 19.8757 4.322462 31.15829 5.522409
2005-07-19 10:10:17 51°16.38 2°54.736 19.8784 4.323306 31.165079 5.792084
2005-07-19 10:10:22 51°16.378 2°54.738 19.8791 4.323306 31.165079 5.792084
2005-07-19 10:10:27 51°16.375 2°54.741 19.8774 4.323517 31.164691 5.421281
2005-07-19 10:10:32 51°16.373 2°54.742 19.882 4.3174 31.11756 5.758375
2005-07-19 10:10:37 51°16.369 2°54.743 19.8828 4.313815 31.085594 5.45499
2005-07-19 10:10:41 51°16.367 2°54.743 19.8845 4.318771 31.124945 5.286443
2005-07-19 10:10:47 51°16.364 2°54.742 19.8842 4.318771 31.124945 5.286443
2005-07-19 10:10:52 51°16.362 2°54.741 19.8828 4.321197 31.142375 5.219024
2005-07-19 10:10:57 51°16.36 2°54.738 19.8835 4.313288 31.078753 5.219024
2005-07-19 10:11:02 51°16.358 2°54.735 19.8833 4.319509 31.127239 5.353862
2005-07-19 10:11:07 51°16.357 2°54.731 19.8825 4.320564 31.13416 5.016768
2005-07-19 10:11:12 51°16.357 2°54.727 19.8832 4.311917 31.063051 4.949349
2005-07-19 10:11:17 51°16.357 2°54.721 19.88 4.311917 31.063051 4.949349
2005-07-19 10:11:23 51°16.358 2°54.715 19.8783 4.312549 31.06658 5.117896
2005-07-19 10:11:27 51°16.359 2°54.71 19.8813 4.314869 31.084196 5.387571
2005-07-19 10:11:32 51°16.362 2°54.706 19.8824 4.313288 31.071477 4.88193
2005-07-19 10:11:37 51°16.365 2°54.701 19.884 4.3116 31.058429 5.387571
2005-07-19 10:11:42 51°16.368 2°54.696 19.8836 4.312338 31.063845 5.185315
2005-07-19 10:11:48 51°16.373 2°54.69 19.8819 4.31624 31.094701 5.117896
2005-07-19 10:11:52 51°16.376 2°54.687 19.8809 4.31624 31.094701 5.117896
2005-07-19 10:11:57 51°16.379 2°54.683 19.8816 4.320036 31.126274 5.252734
2005-07-19 10:12:01 51°16.382 2°54.68 19.884 4.320458 31.130708 5.219024
2005-07-19 10:12:07 51°16.387 2°54.676 19.8849 4.321196 31.136125 5.084187
2005-07-19 10:12:12 51°16.39 2°54.673 19.8834 4.320775 31.132732 5.252734
2005-07-19 10:12:16 51°16.393 2°54.67 19.8829 4.321196 31.136646 5.219024
2005-07-19 10:12:21 51°16.397 2°54.667 19.8825 4.321196 31.136646 5.219024
2005-07-19 10:12:27 51°16.401 2°54.663 19.8856 4.320775 31.133253 4.91564
2005-07-19 10:12:32 51°16.404 2°54.661 19.8854 4.320669 31.132925 4.747093
2005-07-19 10:12:37 51°16.407 2°54.658 19.8822 4.316029 31.095085 4.983059
2005-07-19 10:12:42 51°16.41 2°54.656 19.8814 4.321091 31.135798 4.814512
2005-07-19 10:12:47 51°16.414 2°54.653 19.8724 4.321091 31.135798 4.814512
2005-07-19 10:12:52 51°16.417 2°54.65 19.8723 4.321724 31.140366 4.983059
2005-07-19 10:12:57 51°16.421 2°54.647 19.8705 4.321724 31.140887 4.780802
2005-07-19 10:13:02 51°16.424 2°54.645 19.8725 4.322356 31.145977 4.949349
2005-07-19 10:13:07 51°16.427 2°54.643 19.8726 4.322884 31.148135 4.814512
2005-07-19 10:13:12 51°16.431 2°54.64 19.8753 4.322462 31.145784 4.578546
2005-07-19 10:13:17 51°16.434 2°54.638 19.8754 4.322462 31.145784 4.578546
2005-07-19 10:13:22 51°16.437 2°54.636 19.8753 4.323727 31.157005 4.578546
2005-07-19 10:13:27 51°16.44 2°54.633 19.8784 4.324887 31.168944 4.645965
2005-07-19 10:13:32 51°16.443 2°54.631 19.8805 4.324887 31.171551 4.612255
2005-07-19 10:13:37 51°16.447 2°54.629 19.8806 4.323833 31.164108 4.780802
2005-07-19 10:13:42 51°16.45 2°54.627 19.8803 4.32436 31.168351 4.713383
2005-07-19 10:13:47 51°16.453 2°54.625 19.8783 4.324571 31.169005 5.050477
2005-07-19 10:13:52 51°16.456 2°54.622 19.8758 4.324571 31.169005 5.050477
2005-07-19 10:13:57 51°16.459 2°54.62 19.8744 4.324466 31.169199 4.814512
2005-07-19 10:14:01 51°16.462 2°54.618 19.8743 4.325309 31.173902 4.780802
2005-07-19 10:14:08 51°16.466 2°54.615 19.8724 4.325415 31.174751 4.679674
2005-07-19 10:14:12 51°16.469 2°54.614 19.87 4.325415 31.174229 4.544836
2005-07-19 10:14:17 51°16.472 2°54.612 19.8705 4.325415 31.174229 4.544836
2005-07-19 10:14:22 51°16.475 2°54.61 19.8687 4.325836 31.17658 4.612255
2005-07-19 10:14:27 51°16.479 2°54.608 19.8702 4.325836 31.17658 4.409999
2005-07-19 10:14:32 51°16.482 2°54.606 19.8713 4.325836 31.177102 4.747093
2005-07-19 10:14:37 51°16.485 2°54.604 19.8726 4.326575 31.184085 4.544836
2005-07-19 10:14:42 51°16.488 2°54.602 19.8725 4.327629 31.193614 4.747093
2005-07-19 10:14:47 51°16.491 2°54.6 19.8726 4.327629 31.193614 4.747093
2005-07-19 10:14:52 51°16.495 2°54.598 19.873 4.326891 31.189761 4.376289
2005-07-19 10:14:57 51°16.498 2°54.596 19.8733 4.324044 31.167369 4.409999
2005-07-19 10:15:02 51°16.501 2°54.594 19.8712 4.324149 31.168218 4.612255
2005-07-19 10:15:07 51°16.504 2°54.592 19.8676 4.32784 31.198443 4.578546
2005-07-19 10:15:12 51°16.507 2°54.591 19.869 4.327946 31.198769 4.645965
2005-07-19 10:15:17 51°16.51 2°54.588 19.867 4.328684 31.203144 4.544836
2005-07-19 10:15:21 51°16.513 2°54.587 19.8676 4.328684 31.203144 4.544836
2005-07-19 10:15:27 51°16.517 2°54.585 19.8695 4.328051 31.199096 4.713383
2005-07-19 10:15:32 51°16.519 2°54.583 19.8699 4.329422 31.209085 4.848221
2005-07-19 10:15:37 51°16.523 2°54.581 19.8657 4.329949 31.213851 4.544836
2005-07-19 10:15:42 51°16.526 2°54.578 19.8601 4.329422 31.210652 4.713383
2005-07-19 10:15:48 51°16.529 2°54.576 19.8614 4.329949 31.21594 4.848221
2005-07-19 10:15:52 51°16.531 2°54.575 19.8624 4.329949 31.21594 4.848221
2005-07-19 10:15:57 51°16.535 2°54.572 19.8601 4.33016 31.219204 4.983059
2005-07-19 10:16:02 51°16.537 2°54.571 19.8594 4.330793 31.223775 4.578546
2005-07-19 10:16:07 51°16.54 2°54.569 19.8543 4.330582 31.221555 4.780802
2005-07-19 10:16:12 51°16.543 2°54.568 19.852 4.331004 31.226518 4.443708
2005-07-19 10:16:17 51°16.546 2°54.567 19.8495 4.331004 31.226518 4.443708
2005-07-19 10:16:22 51°16.548 2°54.566 19.8509 4.331426 31.230436 4.713383
2005-07-19 10:16:28 51°16.552 2°54.564 19.8542 4.330688 31.226584 4.713383
2005-07-19 10:16:32 51°16.554 2°54.563 19.8546 4.331848 31.236968 4.679674
2005-07-19 10:16:37 51°16.558 2°54.562 19.8536 4.332164 31.238469 4.544836
2005-07-19 10:16:41 51°16.56 2°54.561 19.8513 4.331215 31.232396 4.780802
2005-07-19 10:16:47 51°16.564 2°54.559 19.8482 4.331215 31.232396 4.780802
2005-07-19 10:16:52 51°16.567 2°54.558 19.8464 4.331742 31.238733 4.814512
2005-07-19 10:16:57 51°16.57 2°54.557 19.8509 4.332797 31.250362 4.88193
2005-07-19 10:17:02 51°16.573 2°54.557 19.8534 4.331953 31.244614 4.645965
2005-07-19 10:17:07 51°16.576 2°54.555 19.8566 4.332375 31.248011 4.949349
2005-07-19 10:17:12 51°16.579 2°54.554 19.8528 4.333746 31.257482 4.679674
2005-07-19 10:17:17 51°16.582 2°54.553 19.853 4.334062 31.261076 4.91564
2005-07-19 10:17:22 51°16.585 2°54.551 19.8504 4.334062 31.261076 4.91564
2005-07-19 10:17:27 51°16.588 2°54.551 19.8498 4.334062 31.263693 4.747093
2005-07-19 10:17:32 51°16.591 2°54.549 19.8507 4.33459 31.266893 4.645965
2005-07-19 10:17:37 51°16.594 2°54.548 19.8563 4.334484 31.26709 4.747093
2005-07-19 10:17:42 51°16.596 2°54.547 19.8529 4.335011 31.269243 5.084187
2005-07-19 10:17:48 51°16.599 2°54.546 19.85 4.334906 31.267347 4.91564
2005-07-19 10:17:52 51°16.602 2°54.545 19.8523 4.334906 31.267347 4.91564
2005-07-19 10:17:57 51°16.605 2°54.544 19.8488 4.335644 31.274339 5.050477
2005-07-19 10:18:02 51°16.608 2°54.543 19.8469 4.335644 31.274863 4.780802
2005-07-19 10:18:07 51°16.611 2°54.542 19.8461 4.336277 31.279435 5.219024
2005-07-19 10:18:12 51°16.614 2°54.541 19.8493 4.335855 31.277609 5.353862
2005-07-19 10:18:16 51°16.617 2°54.54 19.8488 4.335855 31.277609 5.353862
2005-07-19 10:18:21 51°16.62 2°54.54 19.8466 4.335855 31.277085 5.185315
2005-07-19 10:18:27 51°16.624 2°54.538 19.849 4.336699 31.28388 5.084187
2005-07-19 10:18:32 51°16.627 2°54.538 19.8502 4.332902 31.253304 5.185315
2005-07-19 10:18:37 51°16.63 2°54.537 19.8469 4.337753 31.292898 4.983059
2005-07-19 10:18:41 51°16.632 2°54.537 19.8426 4.337964 31.296169 5.657247
2005-07-19 10:18:47 51°16.636 2°54.537 19.8453 4.337964 31.296169 5.657247
2005-07-19 10:18:52 51°16.638 2°54.537 19.8441 4.338597 31.300218 5.252734
2005-07-19 10:18:57 51°16.642 2°54.537 19.8443 4.337964 31.296169 5.286443
2005-07-19 10:19:02 51°16.644 2°54.537 19.847 4.33828 31.298193 5.286443
2005-07-19 10:19:07 51°16.648 2°54.537 19.8386 4.338808 31.301917 5.421281
2005-07-19 10:19:12 51°16.651 2°54.536 19.8397 4.338913 31.303814 5.623537
2005-07-19 10:19:17 51°16.654 2°54.536 19.8387 4.338913 31.303814 4.983059
2005-07-19 10:19:22 51°16.657 2°54.535 19.8387 4.338913 31.303814 4.983059
2005-07-19 10:19:27 51°16.66 2°54.535 19.8395 4.338491 31.301989 5.45499
2005-07-19 10:19:32 51°16.663 2°54.534 19.84 4.339124 31.308134 5.353862
2005-07-19 10:19:38 51°16.667 2°54.534 19.8401 4.338913 31.307484 4.983059
2005-07-19 10:19:42 51°16.669 2°54.534 19.84 4.339757 31.314281 5.45499
2005-07-19 10:19:47 51°16.672 2°54.533 19.8394 4.339757 31.314281 5.45499
2005-07-19 10:19:52 51°16.675 2°54.533 19.8381 4.339757 31.316378 5.219024
2005-07-19 10:19:57 51°16.678 2°54.532 19.8345 4.339757 31.316903 5.151606
2005-07-19 10:20:01 51°16.68 2°54.531 19.8303 4.340284 31.320627 5.623537
2005-07-19 10:20:08 51°16.684 2°54.53 19.8279 4.340284 31.321676 5.556118
2005-07-19 10:20:12 51°16.687 2°54.529 19.8325 4.340495 31.3239 5.623537
2005-07-19 10:20:17 51°16.69 2°54.528 19.8318 4.340495 31.3239 5.623537
2005-07-19 10:20:22 51°16.693 2°54.527 19.8338 4.340601 31.323176 5.320153
2005-07-19 10:20:28 51°16.696 2°54.526 19.8325 4.340812 31.3254 5.758375
2005-07-19 10:20:32 51°16.699 2°54.525 19.8313 4.341444 31.330499 5.926922
2005-07-19 10:20:37 51°16.702 2°54.525 19.8297 4.341022 31.330248 5.926922
2005-07-19 10:20:41 51°16.704 2°54.524 19.8291 4.341655 31.337446 5.724665
2005-07-19 10:20:47 51°16.708 2°54.522 19.8297 4.34155 31.337121 5.792084
2005-07-19 10:20:52 51°16.711 2°54.522 19.8333 4.34155 31.337121 5.792084
2005-07-19 10:20:57 51°16.714 2°54.521 19.8364 4.341128 31.334246 5.825794
2005-07-19 10:21:01 51°16.716 2°54.52 19.8348 4.341761 31.337771 5.926922
2005-07-19 10:21:07 51°16.72 2°54.518 19.8333 4.341866 31.339671 6.331435
2005-07-19 10:21:12 51°16.723 2°54.518 19.8344 4.342183 31.342221 5.994341
2005-07-19 10:21:17 51°16.726 2°54.517 19.8321 4.341655 31.340071 6.162888
2005-07-19 10:21:22 51°16.729 2°54.516 19.8333 4.341655 31.340071 6.162888
2005-07-19 10:21:27 51°16.732 2°54.516 19.8315 4.341655 31.338496 6.129178
2005-07-19 10:21:32 51°16.734 2°54.516 19.8359 4.341972 31.341046 5.792084
2005-07-19 10:21:37 51°16.738 2°54.515 19.8316 4.342393 31.342871 5.859503
2005-07-19 10:21:42 51°16.741 2°54.514 19.8293 4.342183 31.340646 5.926922
2005-07-19 10:21:47 51°16.744 2°54.513 19.8291 4.342183 31.340646 5.926922
2005-07-19 10:21:52 51°16.747 2°54.512 19.8257 4.342499 31.343196 5.994341
2005-07-19 10:21:57 51°16.75 2°54.511 19.8235 4.342393 31.343396 5.859503
2005-07-19 10:22:02 51°16.753 2°54.51 19.8261 4.343237 31.350196 5.623537
2005-07-19 10:22:07 51°16.756 2°54.51 19.8242 4.343237 31.349671 5.589828
2005-07-19 10:22:12 51°16.759 2°54.509 19.8241 4.343553 31.352221 5.825794
2005-07-19 10:22:17 51°16.763 2°54.508 19.823 4.344292 31.358696 5.589828
2005-07-19 10:22:22 51°16.766 2°54.508 19.8241 4.344292 31.358696 5.589828
2005-07-19 10:22:27 51°16.769 2°54.508 19.8234 4.343764 31.354971 6.02805
2005-07-19 10:22:32 51°16.772 2°54.507 19.8239 4.344186 31.360998 5.690956
2005-07-19 10:22:37 51°16.776 2°54.507 19.8254 4.344292 31.361848 5.589828
2005-07-19 10:22:42 51°16.779 2°54.507 19.8209 4.344503 31.365124 5.724665
2005-07-19 10:22:47 51°16.782 2°54.506 19.8207 4.344186 31.363099 6.02805
2005-07-19 10:22:52 51°16.785 2°54.505 19.8228 4.344186 31.363099 6.02805
2005-07-19 10:22:57 51°16.789 2°54.505 19.8175 4.344819 31.367675 5.758375
2005-07-19 10:23:02 51°16.792 2°54.506 19.8187 4.343026 31.354273 5.926922
2005-07-19 10:23:08 51°16.796 2°54.506 19.8205 4.344503 31.36565 5.4887
2005-07-19 10:23:12 51°16.799 2°54.506 19.8198 4.345241 31.37055 5.758375
2005-07-19 10:23:17 51°16.802 2°54.505 19.8064 4.345241 31.37055 5.758375
2005-07-19 10:23:22 51°16.805 2°54.505 19.7914 4.345874 31.377228 5.960631
2005-07-19 10:23:28 51°16.809 2°54.505 19.7893 4.346295 31.382732 5.758375
2005-07-19 10:23:32 51°16.811 2°54.505 19.7819 4.345979 31.379656 5.994341
2005-07-19 10:23:37 51°16.815 2°54.504 19.775 4.346823 31.38751 5.556118
2005-07-19 10:23:42 51°16.817 2°54.504 19.7621 4.345346 31.376131 6.230306
2005-07-19 10:23:47 51°16.821 2°54.503 19.7534 4.345346 31.376131 6.230306
2005-07-19 10:23:52 51°16.823 2°54.502 19.7491 4.345979 31.381759 6.129178
2005-07-19 10:23:57 51°16.826 2°54.499 19.753 4.346296 31.387992 6.331435
2005-07-19 10:24:02 51°16.828 2°54.498 19.7441 4.347983 31.407916 6.533691
2005-07-19 10:24:07 51°16.83 2°54.496 19.7371 4.347561 31.410832 6.264016
2005-07-19 10:24:12 51°16.831 2°54.494 19.7401 4.349249 31.43077 6.162888
2005-07-19 10:24:17 51°16.832 2°54.493 19.7452 4.351991 31.461342 6.162888
2005-07-19 10:24:22 51°16.832 2°54.49 19.7435 4.351991 31.461342 6.162888
2005-07-19 10:24:27 51°16.832 2°54.488 19.7445 4.353256 31.478425 6.668529
2005-07-19 10:24:32 51°16.831 2°54.486 19.7523 4.353045 31.482005 6.769657
2005-07-19 10:24:37 51°16.83 2°54.484 19.7556 4.354416 31.49625 6.668529
2005-07-19 10:24:42 51°16.828 2°54.483 19.7573 4.354627 31.502714 7.106751
2005-07-19 10:24:48 51°16.826 2°54.483 19.7582 4.356631 31.521549 6.904494
2005-07-19 10:24:52 51°16.823 2°54.483 19.7654 4.356631 31.521549 6.904494
2005-07-19 10:24:57 51°16.818 2°54.483 19.7673 4.356315 31.520581 7.073042
2005-07-19 10:25:02 51°16.812 2°54.482 19.765 4.356631 31.522079 7.544973
2005-07-19 10:25:07 51°16.804 2°54.481 19.7668 4.356209 31.517611 7.410136
2005-07-19 10:25:12 51°16.797 2°54.479 19.7766 4.354417 31.500481 7.578683
2005-07-19 10:25:17 51°16.788 2°54.475 19.7792 4.354417 31.500481 7.578683
2005-07-19 10:25:22 51°16.778 2°54.472 19.7643 4.353573 31.491021 7.443845
2005-07-19 10:25:28 51°16.767 2°54.466 19.7721 4.355366 31.503917 7.073042
2005-07-19 10:25:32 51°16.758 2°54.462 19.7778 4.353678 31.486587 8.050614
2005-07-19 10:25:37 51°16.748 2°54.457 19.7841 4.352835 31.477659 7.612392
2005-07-19 10:25:42 51°16.737 2°54.452 19.7902 4.355576 31.498747 7.544973
2005-07-19 10:25:47 51°16.725 2°54.446 19.7961 4.355576 31.498747 7.544973
2005-07-19 10:25:52 51°16.714 2°54.44 19.7937 4.35526 31.492492 7.915777
2005-07-19 10:25:57 51°16.702 2°54.433 19.7936 4.355049 31.489732 7.949486
2005-07-19 10:26:02 51°16.692 2°54.427 19.7888 4.355049 31.489204 7.915777
2005-07-19 10:26:07 51°16.679 2°54.419 19.7902 4.353889 31.479308 7.814648
2005-07-19 10:26:12 51°16.668 2°54.414 19.7953 4.353889 31.477196 7.410136
2005-07-19 10:26:17 51°16.655 2°54.408 19.7977 4.352729 31.463607 7.544973
2005-07-19 10:26:22 51°16.643 2°54.404 19.8017 4.352729 31.463607 7.544973
2005-07-19 10:26:27 51°16.629 2°54.399 19.802 4.351569 31.449494 7.612392
2005-07-19 10:26:32 51°16.617 2°54.395 19.8025 4.346929 31.409413 7.511264
2005-07-19 10:26:37 51°16.603 2°54.392 19.801 4.343976 31.385588 7.679811
2005-07-19 10:26:41 51°16.592 2°54.389 19.7974 4.306751 31.086503 7.646101
2005-07-19 10:26:47 51°16.576 2°54.385 19.7891 4.341867 31.368046 7.342717
2005-07-19 10:26:52 51°16.563 2°54.381 19.7708 4.341867 31.368046 7.342717
2005-07-19 10:26:57 51°16.549 2°54.378 19.7713 4.343554 31.38008 7.376426
2005-07-19 10:27:02 51°16.537 2°54.375 19.7736 4.347245 31.407753 7.039332
2005-07-19 10:27:07 51°16.522 2°54.371 19.7721 4.347034 31.403418 7.309007
2005-07-19 10:27:12 51°16.509 2°54.369 19.774 4.347139 31.403216 7.410136
2005-07-19 10:27:17 51°16.496 2°54.364 19.7711 4.347139 31.403216 7.410136
2005-07-19 10:27:22 51°16.484 2°54.361 19.7709 4.345874 31.39406 7.17417
2005-07-19 10:27:27 51°16.469 2°54.355 19.7696 4.346401 31.401999 7.207879
2005-07-19 10:27:32 51°16.455 2°54.352 19.7712 4.350831 31.445119 6.870785
2005-07-19 10:27:37 51°16.443 2°54.347 19.7578 4.352518 31.464543 6.803366
2005-07-19 10:27:42 51°16.432 2°54.344 19.7502 4.354627 31.481572 6.938204
2005-07-19 10:27:48 51°16.419 2°54.34 19.7504 4.35526 31.487737 6.60111
2005-07-19 10:27:52 51°16.411 2°54.338 19.756 4.35526 31.487737 6.60111
2005-07-19 10:27:57 51°16.401 2°54.334 19.7589 4.355682 31.4922 6.668529
2005-07-19 10:28:02 51°16.392 2°54.331 19.7572 4.355682 31.493785 6.668529
2005-07-19 10:28:07 51°16.383 2°54.329 19.7591 4.350831 31.454087 6.837076
2005-07-19 10:28:12 51°16.375 2°54.328 19.7554 4.354205 31.48292 7.106751
2005-07-19 10:28:17 51°16.367 2°54.326 19.7519 4.355365 31.497572 7.275298
2005-07-19 10:28:22 51°16.36 2°54.325 19.7486 4.355365 31.497572 7.275298
2005-07-19 10:28:27 51°16.353 2°54.324 19.7543 4.355155 31.499041 7.410136
2005-07-19 10:28:32 51°16.346 2°54.323 19.7534 4.347667 31.439624 7.74723
2005-07-19 10:28:37 51°16.34 2°54.322 19.7517 4.347456 31.437393 7.275298
2005-07-19 10:28:42 51°16.335 2°54.322 19.746 4.350936 31.466026 7.544973
2005-07-19 10:28:47 51°16.328 2°54.321 19.743 4.350936 31.466026 7.544973
2005-07-19 10:28:52 51°16.323 2°54.319 19.7528 4.355682 31.504358 7.14046
2005-07-19 10:28:57 51°16.317 2°54.319 19.7597 4.353046 31.48359 7.309007
2005-07-19 10:29:02 51°16.312 2°54.318 19.7634 4.356209 31.511262 7.275298
2005-07-19 10:29:07 51°16.306 2°54.319 19.7663 4.355577 31.50615 7.376426
2005-07-19 10:29:12 51°16.301 2°54.32 19.7707 4.354311 31.496456 7.342717
2005-07-19 10:29:17 51°16.295 2°54.32 19.7774 4.354311 31.496456 7.342717
2005-07-19 10:29:22 51°16.29 2°54.32 19.7769 4.353678 31.491344 7.477554
2005-07-19 10:29:28 51°16.284 2°54.319 19.7832 4.353889 31.497278 7.241589
2005-07-19 10:29:32 51°16.279 2°54.32 19.7881 4.353889 31.495163 7.309007
2005-07-19 10:29:37 51°16.275 2°54.319 19.7871 4.351464 31.47187 7.74723
2005-07-19 10:29:41 51°16.272 2°54.318 19.7833 4.351358 31.468377 7.073042
2005-07-19 10:29:47 51°16.268 2°54.316 19.7815 4.344503 31.408805 6.870785
2005-07-19 10:29:52 51°16.265 2°54.315 19.7765 4.344503 31.408805 6.870785
2005-07-19 10:29:57 51°16.263 2°54.315 19.7757 4.351358 31.460456 7.17417
2005-07-19 10:30:02 51°16.261 2°54.315 19.7745 4.348933 31.438762 7.17417
2005-07-19 10:30:07 51°16.26 2°54.316 19.7729 4.349776 31.440826 7.106751
2005-07-19 10:30:12 51°16.259 2°54.317 19.7756 4.349776 31.437662 7.17417
2005-07-19 10:30:17 51°16.259 2°54.319 19.7784 4.349776 31.436607 7.207879
2005-07-19 10:30:21 51°16.258 2°54.321 19.7831 4.349776 31.436607 7.207879
2005-07-19 10:30:28 51°16.258 2°54.324 19.783 4.349776 31.438189 6.870785
2005-07-19 10:30:32 51°16.257 2°54.326 19.7833 4.348405 31.428178 6.971913
2005-07-19 10:30:37 51°16.257 2°54.328 19.7864 4.340812 31.368481 6.769657
2005-07-19 10:30:42 51°16.258 2°54.331 19.7883 4.348932 31.436125 6.634819
2005-07-19 10:30:47 51°16.258 2°54.334 19.7881 4.348932 31.436125 6.634819
2005-07-19 10:30:52 51°16.258 2°54.337 19.7849 4.348405 31.432923 6.668529
2005-07-19 10:30:57 51°16.258 2°54.34 19.7856 4.348616 31.433044 6.533691
2005-07-19 10:31:02 51°16.258 2°54.343 19.7861 4.342289 31.380395 6.129178
2005-07-19 10:31:07 51°16.259 2°54.346 19.7853 4.348511 31.429029 6.230306
2005-07-19 10:31:12 51°16.259 2°54.349 19.7863 4.348405 31.427124 6.634819
2005-07-19 10:31:17 51°16.259 2°54.353 19.7856 4.348405 31.427124 6.634819
2005-07-19 10:31:22 51°16.26 2°54.356 19.786 4.348827 31.428947 6.129178
2005-07-19 10:31:28 51°16.26 2°54.36 19.7847 4.348827 31.42842 6.331435
2005-07-19 10:31:32 51°16.261 2°54.363 19.7848 4.348932 31.428217 6.02805
2005-07-19 10:31:37 51°16.261 2°54.367 19.7825 4.349143 31.429919 6.365144
2005-07-19 10:31:42 51°16.262 2°54.371 19.7821 4.349354 31.431621 6.365144
2005-07-19 10:31:48 51°16.263 2°54.375 19.782 4.349038 31.429595 6.5674
2005-07-19 10:31:52 51°16.263 2°54.378 19.7822 4.349038 31.429595 6.5674
2005-07-19 10:31:57 51°16.264 2°54.384 19.7815 4.348932 31.428744 6.196597
2005-07-19 10:32:02 51°16.265 2°54.387 19.7821 4.347456 31.416302 6.5674
2005-07-19 10:32:07 51°16.266 2°54.392 19.7805 4.349143 31.430973 6.702238
2005-07-19 10:32:12 51°16.266 2°54.397 19.7808 4.349038 31.431703 6.870785
2005-07-19 10:32:17 51°16.267 2°54.402 19.7832 4.349038 31.431703 6.870785
2005-07-19 10:32:22 51°16.268 2°54.407 19.7823 4.349143 31.432555 6.938204
2005-07-19 10:32:28 51°16.269 2°54.412 19.7808 4.348932 31.430852 6.938204
2005-07-19 10:32:32 51°16.27 2°54.417 19.7798 4.348827 31.430528 6.702238
2005-07-19 10:32:37 51°16.271 2°54.422 19.7785 4.349038 31.432231 6.702238
2005-07-19 10:32:42 51°16.272 2°54.426 19.7781 4.348827 31.431056 7.241589
2005-07-19 10:32:47 51°16.273 2°54.432 19.7782 4.348827 31.431056 7.241589
2005-07-19 10:32:52 51°16.274 2°54.437 19.776 4.348827 31.431056 7.241589
2005-07-19 10:32:57 51°16.276 2°54.442 19.7747 4.349143 31.434136 7.14046
2005-07-19 10:33:01 51°16.277 2°54.446 19.7735 4.348932 31.432434 7.443845
2005-07-19 10:33:07 51°16.278 2°54.453 19.7713 4.349565 31.437541 7.275298
2005-07-19 10:33:12 51°16.28 2°54.458 19.7688 4.349143 31.433609 7.814648
2005-07-19 10:33:17 51°16.281 2°54.463 19.7659 4.348932 31.434016 7.410136
2005-07-19 10:33:21 51°16.282 2°54.467 19.7609 4.348932 31.434016 7.410136
2005-07-19 10:33:27 51°16.283 2°54.473 19.7585 4.349038 31.434867 7.780939
2005-07-19 10:33:32 51°16.285 2°54.477 19.7558 4.348722 31.432841 7.443845
2005-07-19 10:33:37 51°16.286 2°54.482 19.7561 4.348932 31.435598 7.612392
2005-07-19 10:33:42 51°16.287 2°54.487 19.7542 4.348932 31.43718 7.544973
2005-07-19 10:33:47 51°16.289 2°54.492 19.7526 4.3483 31.431545 7.646101
2005-07-19 10:33:52 51°16.29 2°54.497 19.7486 4.3483 31.431545 7.646101
2005-07-19 10:33:57 51°16.292 2°54.502 19.7481 4.3483 31.435237 7.949486
2005-07-19 10:34:02 51°16.293 2°54.507 19.7465 4.347983 31.435847 7.915777
2005-07-19 10:34:07 51°16.295 2°54.512 19.7479 4.347984 31.43743 8.118033
2005-07-19 10:34:12 51°16.296 2°54.516 19.7489 4.347878 31.439744 8.084324
2005-07-19 10:34:17 51°16.297 2°54.522 19.7484 4.347878 31.439744 8.084324
2005-07-19 10:34:21 51°16.299 2°54.527 19.7477 4.347984 31.441123 8.151742
2005-07-19 10:34:28 51°16.301 2°54.533 19.7499 4.348511 31.448021 7.443845
2005-07-19 10:34:32 51°16.302 2°54.537 19.7523 4.346824 31.437033 7.74723
2005-07-19 10:34:37 51°16.303 2°54.542 19.7537 4.347773 31.445754 7.814648